<?xml version="1.0" encoding="UTF-8" standalone="no" ?>
<gpx xmlns="http://www.topografix.com/GPX/1/1" xmlns:xsi="http://www.w3.org/2001/XMLSchema-instance" xsi:schemaLocation="http://www.topografix.com/GPX/1/1 http://www.topografix.com/GPX/1/1/gpx.xsd" version="1.1" creator="VisuGPX - https://www.visugpx.com">
  <metadata>
    <name>lundi 2015 12 14 - 2015 10 12</name>
    <desc><![CDATA[cumul depuis le 2015 10 12]]></desc>
  </metadata>
  <trk>
    <name><![CDATA[lundi 2015 11 16]]></name>
    <extensions>
      <line xmlns="http://www.topografix.com/GPX/gpx_style/0/2">
        <color>000000</color>
      </line>
    </extensions>
    <trkseg>
      <trkpt lat="48.8571" lon="2.34689">
        <ele>40.79999923706</ele>
        <time>2015-11-16T19:19:39Z</time>
      </trkpt>
      <trkpt lat="48.85703" lon="2.34681">
        <ele>40.79999923706</ele>
        <time>2015-11-16T19:19:44Z</time>
      </trkpt>
      <trkpt lat="48.85691" lon="2.34671">
        <ele>41</ele>
        <time>2015-11-16T19:19:47Z</time>
      </trkpt>
      <trkpt lat="48.85673" lon="2.34666">
        <ele>42.400001525879</ele>
        <time>2015-11-16T19:19:53Z</time>
      </trkpt>
      <trkpt lat="48.85653" lon="2.34652">
        <ele>44</ele>
        <time>2015-11-16T19:19:59Z</time>
      </trkpt>
      <trkpt lat="48.85634" lon="2.34641">
        <ele>45.599998474121</ele>
        <time>2015-11-16T19:20:04Z</time>
      </trkpt>
      <trkpt lat="48.85615" lon="2.3463">
        <ele>47.20000076294</ele>
        <time>2015-11-16T19:20:09Z</time>
      </trkpt>
      <trkpt lat="48.85596" lon="2.34615">
        <ele>47.79999923706</ele>
        <time>2015-11-16T19:20:14Z</time>
      </trkpt>
      <trkpt lat="48.85577" lon="2.34607">
        <ele>47.599998474121</ele>
        <time>2015-11-16T19:20:18Z</time>
      </trkpt>
      <trkpt lat="48.85556" lon="2.34602">
        <ele>47.400001525879</ele>
        <time>2015-11-16T19:20:21Z</time>
      </trkpt>
      <trkpt lat="48.85539" lon="2.34592">
        <ele>47.20000076294</ele>
        <time>2015-11-16T19:20:24Z</time>
      </trkpt>
      <trkpt lat="48.85518" lon="2.34577">
        <ele>46.599998474121</ele>
        <time>2015-11-16T19:20:28Z</time>
      </trkpt>
      <trkpt lat="48.855" lon="2.34563">
        <ele>45.400001525879</ele>
        <time>2015-11-16T19:20:32Z</time>
      </trkpt>
      <trkpt lat="48.85482" lon="2.3455">
        <ele>44</ele>
        <time>2015-11-16T19:20:36Z</time>
      </trkpt>
      <trkpt lat="48.85474" lon="2.34545">
        <ele>43.400001525879</ele>
        <time>2015-11-16T19:20:38Z</time>
      </trkpt>
      <trkpt lat="48.85456" lon="2.34533">
        <ele>42.20000076294</ele>
        <time>2015-11-16T19:20:42Z</time>
      </trkpt>
      <trkpt lat="48.85443" lon="2.34516">
        <ele>41.20000076294</ele>
        <time>2015-11-16T19:20:48Z</time>
      </trkpt>
      <trkpt lat="48.85428" lon="2.34507">
        <ele>41.400001525879</ele>
        <time>2015-11-16T19:20:52Z</time>
      </trkpt>
      <trkpt lat="48.85414" lon="2.34493">
        <ele>42</ele>
        <time>2015-11-16T19:20:56Z</time>
      </trkpt>
      <trkpt lat="48.85399" lon="2.34476">
        <ele>42.400001525879</ele>
        <time>2015-11-16T19:21:01Z</time>
      </trkpt>
      <trkpt lat="48.85392" lon="2.34466">
        <ele>42.599998474121</ele>
        <time>2015-11-16T19:21:04Z</time>
      </trkpt>
      <trkpt lat="48.85387" lon="2.34441">
        <ele>42.79999923706</ele>
        <time>2015-11-16T19:21:16Z</time>
      </trkpt>
      <trkpt lat="48.85372" lon="2.34419">
        <ele>43</ele>
        <time>2015-11-16T19:21:27Z</time>
      </trkpt>
      <trkpt lat="48.85355" lon="2.34397">
        <ele>44.599998474121</ele>
        <time>2015-11-16T19:21:32Z</time>
      </trkpt>
      <trkpt lat="48.85342" lon="2.34376">
        <ele>45.599998474121</ele>
        <time>2015-11-16T19:21:36Z</time>
      </trkpt>
      <trkpt lat="48.85327" lon="2.34356">
        <ele>46.79999923706</ele>
        <time>2015-11-16T19:21:40Z</time>
      </trkpt>
      <trkpt lat="48.85311" lon="2.34337">
        <ele>47.79999923706</ele>
        <time>2015-11-16T19:21:44Z</time>
      </trkpt>
      <trkpt lat="48.85307" lon="2.34327">
        <ele>48.20000076294</ele>
        <time>2015-11-16T19:21:46Z</time>
      </trkpt>
      <trkpt lat="48.85296" lon="2.34302">
        <ele>48.79999923706</ele>
        <time>2015-11-16T19:21:51Z</time>
      </trkpt>
      <trkpt lat="48.85284" lon="2.34277">
        <ele>49.400001525879</ele>
        <time>2015-11-16T19:21:56Z</time>
      </trkpt>
      <trkpt lat="48.85281" lon="2.34274">
        <ele>49.400001525879</ele>
        <time>2015-11-16T19:21:57Z</time>
      </trkpt>
      <trkpt lat="48.85265" lon="2.34251">
        <ele>49.79999923706</ele>
        <time>2015-11-16T19:22:02Z</time>
      </trkpt>
      <trkpt lat="48.85251" lon="2.34234">
        <ele>49.20000076294</ele>
        <time>2015-11-16T19:22:06Z</time>
      </trkpt>
      <trkpt lat="48.85246" lon="2.34231">
        <ele>49.20000076294</ele>
        <time>2015-11-16T19:22:07Z</time>
      </trkpt>
      <trkpt lat="48.85229" lon="2.34219">
        <ele>48.400001525879</ele>
        <time>2015-11-16T19:22:11Z</time>
      </trkpt>
      <trkpt lat="48.85221" lon="2.34183">
        <ele>46.79999923706</ele>
        <time>2015-11-16T19:22:17Z</time>
      </trkpt>
      <trkpt lat="48.85209" lon="2.34154">
        <ele>45.599998474121</ele>
        <time>2015-11-16T19:22:22Z</time>
      </trkpt>
      <trkpt lat="48.85208" lon="2.3414">
        <ele>45.400001525879</ele>
        <time>2015-11-16T19:22:24Z</time>
      </trkpt>
      <trkpt lat="48.85204" lon="2.34118">
        <ele>45.20000076294</ele>
        <time>2015-11-16T19:22:29Z</time>
      </trkpt>
      <trkpt lat="48.85206" lon="2.34102">
        <ele>45</ele>
        <time>2015-11-16T19:22:33Z</time>
      </trkpt>
      <trkpt lat="48.8521" lon="2.34062">
        <ele>45.20000076294</ele>
        <time>2015-11-16T19:22:40Z</time>
      </trkpt>
      <trkpt lat="48.85208" lon="2.34032">
        <ele>46</ele>
        <time>2015-11-16T19:22:45Z</time>
      </trkpt>
      <trkpt lat="48.85197" lon="2.34004">
        <ele>46.79999923706</ele>
        <time>2015-11-16T19:22:50Z</time>
      </trkpt>
      <trkpt lat="48.85199" lon="2.33996">
        <ele>46.79999923706</ele>
        <time>2015-11-16T19:22:51Z</time>
      </trkpt>
      <trkpt lat="48.85207" lon="2.33969">
        <ele>47.79999923706</ele>
        <time>2015-11-16T19:22:55Z</time>
      </trkpt>
      <trkpt lat="48.8521" lon="2.33962">
        <ele>48</ele>
        <time>2015-11-16T19:22:56Z</time>
      </trkpt>
      <trkpt lat="48.8522" lon="2.33933">
        <ele>48.599998474121</ele>
        <time>2015-11-16T19:23:00Z</time>
      </trkpt>
      <trkpt lat="48.85227" lon="2.33906">
        <ele>48.20000076294</ele>
        <time>2015-11-16T19:23:04Z</time>
      </trkpt>
      <trkpt lat="48.85224" lon="2.33877">
        <ele>48</ele>
        <time>2015-11-16T19:23:09Z</time>
      </trkpt>
      <trkpt lat="48.85209" lon="2.33866">
        <ele>49</ele>
        <time>2015-11-16T19:23:13Z</time>
      </trkpt>
      <trkpt lat="48.85198" lon="2.33862">
        <ele>49.79999923706</ele>
        <time>2015-11-16T19:23:15Z</time>
      </trkpt>
      <trkpt lat="48.8518" lon="2.33855">
        <ele>50.599998474121</ele>
        <time>2015-11-16T19:23:19Z</time>
      </trkpt>
      <trkpt lat="48.85176" lon="2.33853">
        <ele>50.79999923706</ele>
        <time>2015-11-16T19:23:20Z</time>
      </trkpt>
      <trkpt lat="48.85163" lon="2.33843">
        <ele>51.20000076294</ele>
        <time>2015-11-16T19:23:23Z</time>
      </trkpt>
      <trkpt lat="48.85145" lon="2.33836">
        <ele>51.599998474121</ele>
        <time>2015-11-16T19:23:27Z</time>
      </trkpt>
      <trkpt lat="48.85127" lon="2.33824">
        <ele>52</ele>
        <time>2015-11-16T19:23:32Z</time>
      </trkpt>
      <trkpt lat="48.85126" lon="2.3379">
        <ele>51.400001525879</ele>
        <time>2015-11-16T19:23:36Z</time>
      </trkpt>
      <trkpt lat="48.85126" lon="2.33779">
        <ele>51</ele>
        <time>2015-11-16T19:23:37Z</time>
      </trkpt>
      <trkpt lat="48.85125" lon="2.33748">
        <ele>50.599998474121</ele>
        <time>2015-11-16T19:23:40Z</time>
      </trkpt>
      <trkpt lat="48.85124" lon="2.33739">
        <ele>50.20000076294</ele>
        <time>2015-11-16T19:23:41Z</time>
      </trkpt>
      <trkpt lat="48.85127" lon="2.3371">
        <ele>49.20000076294</ele>
        <time>2015-11-16T19:23:44Z</time>
      </trkpt>
      <trkpt lat="48.85127" lon="2.33679">
        <ele>48</ele>
        <time>2015-11-16T19:23:47Z</time>
      </trkpt>
      <trkpt lat="48.85125" lon="2.33648">
        <ele>47.79999923706</ele>
        <time>2015-11-16T19:23:50Z</time>
      </trkpt>
      <trkpt lat="48.85122" lon="2.3362">
        <ele>48.20000076294</ele>
        <time>2015-11-16T19:23:53Z</time>
      </trkpt>
      <trkpt lat="48.85121" lon="2.33592">
        <ele>48.599998474121</ele>
        <time>2015-11-16T19:23:56Z</time>
      </trkpt>
      <trkpt lat="48.85125" lon="2.33568">
        <ele>49.599998474121</ele>
        <time>2015-11-16T19:23:58Z</time>
      </trkpt>
      <trkpt lat="48.85129" lon="2.33541">
        <ele>51.599998474121</ele>
        <time>2015-11-16T19:24:01Z</time>
      </trkpt>
      <trkpt lat="48.8513" lon="2.33507">
        <ele>53.400001525879</ele>
        <time>2015-11-16T19:24:06Z</time>
      </trkpt>
      <trkpt lat="48.85127" lon="2.3349">
        <ele>53.599998474121</ele>
        <time>2015-11-16T19:24:08Z</time>
      </trkpt>
      <trkpt lat="48.85121" lon="2.33461">
        <ele>52.79999923706</ele>
        <time>2015-11-16T19:24:12Z</time>
      </trkpt>
      <trkpt lat="48.85118" lon="2.33431">
        <ele>51.79999923706</ele>
        <time>2015-11-16T19:24:16Z</time>
      </trkpt>
      <trkpt lat="48.85118" lon="2.33422">
        <ele>51.599998474121</ele>
        <time>2015-11-16T19:24:17Z</time>
      </trkpt>
      <trkpt lat="48.85116" lon="2.33395">
        <ele>50.79999923706</ele>
        <time>2015-11-16T19:24:20Z</time>
      </trkpt>
      <trkpt lat="48.85111" lon="2.33366">
        <ele>49.599998474121</ele>
        <time>2015-11-16T19:24:24Z</time>
      </trkpt>
      <trkpt lat="48.85111" lon="2.33338">
        <ele>48.20000076294</ele>
        <time>2015-11-16T19:24:27Z</time>
      </trkpt>
      <trkpt lat="48.85109" lon="2.3333">
        <ele>48</ele>
        <time>2015-11-16T19:24:28Z</time>
      </trkpt>
      <trkpt lat="48.85096" lon="2.3331">
        <ele>48.20000076294</ele>
        <time>2015-11-16T19:24:32Z</time>
      </trkpt>
      <trkpt lat="48.85081" lon="2.33305">
        <ele>48.79999923706</ele>
        <time>2015-11-16T19:24:35Z</time>
      </trkpt>
      <trkpt lat="48.85061" lon="2.33298">
        <ele>49.20000076294</ele>
        <time>2015-11-16T19:24:39Z</time>
      </trkpt>
      <trkpt lat="48.85041" lon="2.33292">
        <ele>49.400001525879</ele>
        <time>2015-11-16T19:24:43Z</time>
      </trkpt>
      <trkpt lat="48.85021" lon="2.33288">
        <ele>49.599998474121</ele>
        <time>2015-11-16T19:24:47Z</time>
      </trkpt>
      <trkpt lat="48.85011" lon="2.33287">
        <ele>50</ele>
        <time>2015-11-16T19:24:49Z</time>
      </trkpt>
      <trkpt lat="48.84989" lon="2.33285">
        <ele>50.79999923706</ele>
        <time>2015-11-16T19:24:53Z</time>
      </trkpt>
      <trkpt lat="48.84966" lon="2.33283">
        <ele>51.79999923706</ele>
        <time>2015-11-16T19:24:57Z</time>
      </trkpt>
      <trkpt lat="48.84942" lon="2.33281">
        <ele>53</ele>
        <time>2015-11-16T19:25:01Z</time>
      </trkpt>
      <trkpt lat="48.84919" lon="2.3328">
        <ele>52.79999923706</ele>
        <time>2015-11-16T19:25:05Z</time>
      </trkpt>
      <trkpt lat="48.84896" lon="2.33281">
        <ele>52.20000076294</ele>
        <time>2015-11-16T19:25:09Z</time>
      </trkpt>
      <trkpt lat="48.84876" lon="2.33282">
        <ele>51.79999923706</ele>
        <time>2015-11-16T19:25:13Z</time>
      </trkpt>
      <trkpt lat="48.84869" lon="2.33282">
        <ele>51.79999923706</ele>
        <time>2015-11-16T19:25:15Z</time>
      </trkpt>
      <trkpt lat="48.84859" lon="2.33272">
        <ele>51.79999923706</ele>
        <time>2015-11-16T19:25:19Z</time>
      </trkpt>
      <trkpt lat="48.84856" lon="2.33266">
        <ele>51.79999923706</ele>
        <time>2015-11-16T19:25:21Z</time>
      </trkpt>
      <trkpt lat="48.84856" lon="2.33264">
        <ele>51.79999923706</ele>
        <time>2015-11-16T19:25:24Z</time>
      </trkpt>
      <trkpt lat="48.84842" lon="2.33256">
        <ele>51.79999923706</ele>
        <time>2015-11-16T19:25:44Z</time>
      </trkpt>
      <trkpt lat="48.84822" lon="2.33255">
        <ele>51.400001525879</ele>
        <time>2015-11-16T19:25:49Z</time>
      </trkpt>
      <trkpt lat="48.84801" lon="2.33255">
        <ele>51.20000076294</ele>
        <time>2015-11-16T19:25:53Z</time>
      </trkpt>
      <trkpt lat="48.84777" lon="2.33255">
        <ele>51</ele>
        <time>2015-11-16T19:25:57Z</time>
      </trkpt>
      <trkpt lat="48.84758" lon="2.33255">
        <ele>51.400001525879</ele>
        <time>2015-11-16T19:26:00Z</time>
      </trkpt>
      <trkpt lat="48.84739" lon="2.33257">
        <ele>52</ele>
        <time>2015-11-16T19:26:03Z</time>
      </trkpt>
      <trkpt lat="48.8472" lon="2.33256">
        <ele>52.599998474121</ele>
        <time>2015-11-16T19:26:06Z</time>
      </trkpt>
      <trkpt lat="48.84702" lon="2.33252">
        <ele>53.400001525879</ele>
        <time>2015-11-16T19:26:09Z</time>
      </trkpt>
      <trkpt lat="48.84691" lon="2.33251">
        <ele>53.79999923706</ele>
        <time>2015-11-16T19:26:11Z</time>
      </trkpt>
      <trkpt lat="48.84668" lon="2.33252">
        <ele>53.599998474121</ele>
        <time>2015-11-16T19:26:15Z</time>
      </trkpt>
      <trkpt lat="48.84645" lon="2.33251">
        <ele>53.79999923706</ele>
        <time>2015-11-16T19:26:19Z</time>
      </trkpt>
      <trkpt lat="48.84625" lon="2.33249">
        <ele>53.79999923706</ele>
        <time>2015-11-16T19:26:22Z</time>
      </trkpt>
      <trkpt lat="48.84605" lon="2.33247">
        <ele>54</ele>
        <time>2015-11-16T19:26:25Z</time>
      </trkpt>
      <trkpt lat="48.84592" lon="2.33245">
        <ele>53.599998474121</ele>
        <time>2015-11-16T19:26:27Z</time>
      </trkpt>
      <trkpt lat="48.8457" lon="2.33243">
        <ele>53</ele>
        <time>2015-11-16T19:26:30Z</time>
      </trkpt>
      <trkpt lat="48.84552" lon="2.3324">
        <ele>52.599998474121</ele>
        <time>2015-11-16T19:26:33Z</time>
      </trkpt>
      <trkpt lat="48.84529" lon="2.33237">
        <ele>51.79999923706</ele>
        <time>2015-11-16T19:26:37Z</time>
      </trkpt>
      <trkpt lat="48.84514" lon="2.33233">
        <ele>51.79999923706</ele>
        <time>2015-11-16T19:26:40Z</time>
      </trkpt>
      <trkpt lat="48.84497" lon="2.33228">
        <ele>52.400001525879</ele>
        <time>2015-11-16T19:26:45Z</time>
      </trkpt>
      <trkpt lat="48.84482" lon="2.33225">
        <ele>53.20000076294</ele>
        <time>2015-11-16T19:26:52Z</time>
      </trkpt>
      <trkpt lat="48.84475" lon="2.33216">
        <ele>53.599998474121</ele>
        <time>2015-11-16T19:26:55Z</time>
      </trkpt>
      <trkpt lat="48.84467" lon="2.332">
        <ele>54.20000076294</ele>
        <time>2015-11-16T19:26:59Z</time>
      </trkpt>
      <trkpt lat="48.84458" lon="2.33188">
        <ele>54.79999923706</ele>
        <time>2015-11-16T19:27:03Z</time>
      </trkpt>
      <trkpt lat="48.84441" lon="2.33174">
        <ele>55.79999923706</ele>
        <time>2015-11-16T19:27:10Z</time>
      </trkpt>
      <trkpt lat="48.84426" lon="2.33152">
        <ele>56.20000076294</ele>
        <time>2015-11-16T19:27:17Z</time>
      </trkpt>
      <trkpt lat="48.84411" lon="2.33133">
        <ele>56.400001525879</ele>
        <time>2015-11-16T19:27:23Z</time>
      </trkpt>
      <trkpt lat="48.84397" lon="2.3311">
        <ele>56.79999923706</ele>
        <time>2015-11-16T19:27:31Z</time>
      </trkpt>
      <trkpt lat="48.84383" lon="2.33091">
        <ele>57</ele>
        <time>2015-11-16T19:27:39Z</time>
      </trkpt>
      <trkpt lat="48.84386" lon="2.33083">
        <ele>57.400001525879</ele>
        <time>2015-11-16T19:27:41Z</time>
      </trkpt>
      <trkpt lat="48.84393" lon="2.33064">
        <ele>57.79999923706</ele>
        <time>2015-11-16T19:27:50Z</time>
      </trkpt>
      <trkpt lat="48.84394" lon="2.33063">
        <ele>57.79999923706</ele>
        <time>2015-11-16T19:27:51Z</time>
      </trkpt>
      <trkpt lat="48.84384" lon="2.33076">
        <ele>57.400001525879</ele>
        <time>2015-11-16T19:28:00Z</time>
      </trkpt>
      <trkpt lat="48.84367" lon="2.33094">
        <ele>57</ele>
        <time>2015-11-16T19:28:05Z</time>
      </trkpt>
      <trkpt lat="48.84349" lon="2.33108">
        <ele>57.79999923706</ele>
        <time>2015-11-16T19:28:10Z</time>
      </trkpt>
      <trkpt lat="48.84332" lon="2.33123">
        <ele>58.400001525879</ele>
        <time>2015-11-16T19:28:15Z</time>
      </trkpt>
      <trkpt lat="48.84316" lon="2.33141">
        <ele>59</ele>
        <time>2015-11-16T19:28:21Z</time>
      </trkpt>
      <trkpt lat="48.84298" lon="2.33149">
        <ele>59.400001525879</ele>
        <time>2015-11-16T19:28:28Z</time>
      </trkpt>
      <trkpt lat="48.84277" lon="2.33158">
        <ele>59.79999923706</ele>
        <time>2015-11-16T19:28:33Z</time>
      </trkpt>
      <trkpt lat="48.8426" lon="2.33172">
        <ele>60.400001525879</ele>
        <time>2015-11-16T19:28:37Z</time>
      </trkpt>
      <trkpt lat="48.84241" lon="2.33182">
        <ele>61.20000076294</ele>
        <time>2015-11-16T19:28:41Z</time>
      </trkpt>
      <trkpt lat="48.84223" lon="2.33193">
        <ele>61.79999923706</ele>
        <time>2015-11-16T19:28:45Z</time>
      </trkpt>
      <trkpt lat="48.84205" lon="2.33204">
        <ele>62.20000076294</ele>
        <time>2015-11-16T19:28:49Z</time>
      </trkpt>
      <trkpt lat="48.84189" lon="2.33217">
        <ele>62.400001525879</ele>
        <time>2015-11-16T19:28:53Z</time>
      </trkpt>
      <trkpt lat="48.84172" lon="2.33231">
        <ele>62.79999923706</ele>
        <time>2015-11-16T19:28:57Z</time>
      </trkpt>
      <trkpt lat="48.84156" lon="2.33252">
        <ele>63.20000076294</ele>
        <time>2015-11-16T19:29:02Z</time>
      </trkpt>
      <trkpt lat="48.84144" lon="2.33274">
        <ele>63.599998474121</ele>
        <time>2015-11-16T19:29:06Z</time>
      </trkpt>
      <trkpt lat="48.84132" lon="2.33297">
        <ele>63.599998474121</ele>
        <time>2015-11-16T19:29:10Z</time>
      </trkpt>
      <trkpt lat="48.84128" lon="2.33302">
        <ele>63.400001525879</ele>
        <time>2015-11-16T19:29:11Z</time>
      </trkpt>
      <trkpt lat="48.84114" lon="2.33326">
        <ele>63</ele>
        <time>2015-11-16T19:29:15Z</time>
      </trkpt>
      <trkpt lat="48.84108" lon="2.33354">
        <ele>62.20000076294</ele>
        <time>2015-11-16T19:29:19Z</time>
      </trkpt>
      <trkpt lat="48.84104" lon="2.3338">
        <ele>61.20000076294</ele>
        <time>2015-11-16T19:29:23Z</time>
      </trkpt>
      <trkpt lat="48.8409" lon="2.334">
        <ele>61.20000076294</ele>
        <time>2015-11-16T19:29:28Z</time>
      </trkpt>
      <trkpt lat="48.84087" lon="2.33405">
        <ele>61.20000076294</ele>
        <time>2015-11-16T19:29:29Z</time>
      </trkpt>
      <trkpt lat="48.84082" lon="2.33417">
        <ele>61.599998474121</ele>
        <time>2015-11-16T19:29:31Z</time>
      </trkpt>
      <trkpt lat="48.84075" lon="2.33436">
        <ele>63.79999923706</ele>
        <time>2015-11-16T19:29:34Z</time>
      </trkpt>
      <trkpt lat="48.84067" lon="2.33461">
        <ele>66.199996948242</ele>
        <time>2015-11-16T19:29:38Z</time>
      </trkpt>
      <trkpt lat="48.84059" lon="2.33485">
        <ele>66.199996948242</ele>
        <time>2015-11-16T19:29:42Z</time>
      </trkpt>
      <trkpt lat="48.84058" lon="2.33492">
        <ele>66.400001525879</ele>
        <time>2015-11-16T19:29:43Z</time>
      </trkpt>
      <trkpt lat="48.84056" lon="2.33519">
        <ele>67</ele>
        <time>2015-11-16T19:29:46Z</time>
      </trkpt>
      <trkpt lat="48.84048" lon="2.33537">
        <ele>66.599998474121</ele>
        <time>2015-11-16T19:29:49Z</time>
      </trkpt>
      <trkpt lat="48.84038" lon="2.33563">
        <ele>65.400001525879</ele>
        <time>2015-11-16T19:29:54Z</time>
      </trkpt>
      <trkpt lat="48.84039" lon="2.33577">
        <ele>65</ele>
        <time>2015-11-16T19:29:56Z</time>
      </trkpt>
      <trkpt lat="48.8404" lon="2.33591">
        <ele>64</ele>
        <time>2015-11-16T19:29:58Z</time>
      </trkpt>
      <trkpt lat="48.84039" lon="2.33614">
        <ele>63</ele>
        <time>2015-11-16T19:30:02Z</time>
      </trkpt>
      <trkpt lat="48.84039" lon="2.33622">
        <ele>62.79999923706</ele>
        <time>2015-11-16T19:30:04Z</time>
      </trkpt>
      <trkpt lat="48.84038" lon="2.33632">
        <ele>62.599998474121</ele>
        <time>2015-11-16T19:30:07Z</time>
      </trkpt>
      <trkpt lat="48.84023" lon="2.33649">
        <ele>62.400001525879</ele>
        <time>2015-11-16T19:30:14Z</time>
      </trkpt>
      <trkpt lat="48.84019" lon="2.33651">
        <ele>62.20000076294</ele>
        <time>2015-11-16T19:30:15Z</time>
      </trkpt>
      <trkpt lat="48.84013" lon="2.33655">
        <ele>61.599998474121</ele>
        <time>2015-11-16T19:30:17Z</time>
      </trkpt>
      <trkpt lat="48.84" lon="2.33673">
        <ele>62</ele>
        <time>2015-11-16T19:30:33Z</time>
      </trkpt>
      <trkpt lat="48.83988" lon="2.33675">
        <ele>61.79999923706</ele>
        <time>2015-11-16T19:31:40Z</time>
      </trkpt>
      <trkpt lat="48.83988" lon="2.33667">
        <ele>61.599998474121</ele>
        <time>2015-11-16T19:31:49Z</time>
      </trkpt>
      <trkpt lat="48.83981" lon="2.33643">
        <ele>61</ele>
        <time>2015-11-16T19:32:12Z</time>
      </trkpt>
      <trkpt lat="48.83981" lon="2.33639">
        <ele>60.79999923706</ele>
        <time>2015-11-16T19:32:13Z</time>
      </trkpt>
      <trkpt lat="48.83985" lon="2.33612">
        <ele>61</ele>
        <time>2015-11-16T19:32:18Z</time>
      </trkpt>
      <trkpt lat="48.83993" lon="2.33586">
        <ele>62.20000076294</ele>
        <time>2015-11-16T19:32:22Z</time>
      </trkpt>
      <trkpt lat="48.84001" lon="2.33557">
        <ele>63.20000076294</ele>
        <time>2015-11-16T19:32:26Z</time>
      </trkpt>
      <trkpt lat="48.84008" lon="2.33526">
        <ele>64.400001525879</ele>
        <time>2015-11-16T19:32:30Z</time>
      </trkpt>
      <trkpt lat="48.84016" lon="2.33498">
        <ele>65.599998474121</ele>
        <time>2015-11-16T19:32:34Z</time>
      </trkpt>
      <trkpt lat="48.84023" lon="2.33473">
        <ele>65.800003051758</ele>
        <time>2015-11-16T19:32:38Z</time>
      </trkpt>
      <trkpt lat="48.84033" lon="2.33445">
        <ele>65.400001525879</ele>
        <time>2015-11-16T19:32:42Z</time>
      </trkpt>
      <trkpt lat="48.84041" lon="2.33417">
        <ele>64.199996948242</ele>
        <time>2015-11-16T19:32:46Z</time>
      </trkpt>
      <trkpt lat="48.84048" lon="2.33389">
        <ele>63.79999923706</ele>
        <time>2015-11-16T19:32:51Z</time>
      </trkpt>
      <trkpt lat="48.84049" lon="2.33384">
        <ele>63.79999923706</ele>
        <time>2015-11-16T19:32:52Z</time>
      </trkpt>
      <trkpt lat="48.84043" lon="2.33359">
        <ele>64.400001525879</ele>
        <time>2015-11-16T19:33:03Z</time>
      </trkpt>
      <trkpt lat="48.84027" lon="2.33341">
        <ele>65.599998474121</ele>
        <time>2015-11-16T19:33:08Z</time>
      </trkpt>
      <trkpt lat="48.84011" lon="2.33322">
        <ele>65.599998474121</ele>
        <time>2015-11-16T19:33:13Z</time>
      </trkpt>
      <trkpt lat="48.83997" lon="2.333">
        <ele>64.800003051758</ele>
        <time>2015-11-16T19:33:18Z</time>
      </trkpt>
      <trkpt lat="48.83983" lon="2.33279">
        <ele>64</ele>
        <time>2015-11-16T19:33:23Z</time>
      </trkpt>
      <trkpt lat="48.83972" lon="2.33253">
        <ele>63.20000076294</ele>
        <time>2015-11-16T19:33:28Z</time>
      </trkpt>
      <trkpt lat="48.83956" lon="2.33233">
        <ele>62.79999923706</ele>
        <time>2015-11-16T19:33:33Z</time>
      </trkpt>
      <trkpt lat="48.83942" lon="2.33216">
        <ele>62.400001525879</ele>
        <time>2015-11-16T19:33:37Z</time>
      </trkpt>
      <trkpt lat="48.83929" lon="2.33188">
        <ele>63</ele>
        <time>2015-11-16T19:33:42Z</time>
      </trkpt>
      <trkpt lat="48.83917" lon="2.33169">
        <ele>63.400001525879</ele>
        <time>2015-11-16T19:33:46Z</time>
      </trkpt>
      <trkpt lat="48.839" lon="2.3315">
        <ele>64.199996948242</ele>
        <time>2015-11-16T19:33:51Z</time>
      </trkpt>
      <trkpt lat="48.8389" lon="2.33125">
        <ele>64.599998474121</ele>
        <time>2015-11-16T19:33:57Z</time>
      </trkpt>
      <trkpt lat="48.83887" lon="2.33111">
        <ele>64.800003051758</ele>
        <time>2015-11-16T19:34:01Z</time>
      </trkpt>
      <trkpt lat="48.83893" lon="2.33089">
        <ele>65</ele>
        <time>2015-11-16T19:34:06Z</time>
      </trkpt>
      <trkpt lat="48.83909" lon="2.33066">
        <ele>63.79999923706</ele>
        <time>2015-11-16T19:34:11Z</time>
      </trkpt>
      <trkpt lat="48.83925" lon="2.33053">
        <ele>62.79999923706</ele>
        <time>2015-11-16T19:34:16Z</time>
      </trkpt>
      <trkpt lat="48.83931" lon="2.3305">
        <ele>62.599998474121</ele>
        <time>2015-11-16T19:34:18Z</time>
      </trkpt>
      <trkpt lat="48.8394" lon="2.33028">
        <ele>61.400001525879</ele>
        <time>2015-11-16T19:34:39Z</time>
      </trkpt>
      <trkpt lat="48.83945" lon="2.33002">
        <ele>60</ele>
        <time>2015-11-16T19:34:44Z</time>
      </trkpt>
      <trkpt lat="48.83953" lon="2.32977">
        <ele>58.599998474121</ele>
        <time>2015-11-16T19:34:48Z</time>
      </trkpt>
      <trkpt lat="48.83963" lon="2.32952">
        <ele>57</ele>
        <time>2015-11-16T19:34:52Z</time>
      </trkpt>
      <trkpt lat="48.83973" lon="2.32927">
        <ele>56.599998474121</ele>
        <time>2015-11-16T19:34:56Z</time>
      </trkpt>
      <trkpt lat="48.83983" lon="2.32903">
        <ele>57.20000076294</ele>
        <time>2015-11-16T19:35:00Z</time>
      </trkpt>
      <trkpt lat="48.83985" lon="2.32897">
        <ele>57.599998474121</ele>
        <time>2015-11-16T19:35:01Z</time>
      </trkpt>
      <trkpt lat="48.83996" lon="2.32868">
        <ele>58.20000076294</ele>
        <time>2015-11-16T19:35:06Z</time>
      </trkpt>
      <trkpt lat="48.84006" lon="2.32842">
        <ele>58.400001525879</ele>
        <time>2015-11-16T19:35:10Z</time>
      </trkpt>
      <trkpt lat="48.84015" lon="2.32816">
        <ele>58.79999923706</ele>
        <time>2015-11-16T19:35:14Z</time>
      </trkpt>
      <trkpt lat="48.8402" lon="2.32801">
        <ele>59.20000076294</ele>
        <time>2015-11-16T19:35:16Z</time>
      </trkpt>
      <trkpt lat="48.84028" lon="2.32777">
        <ele>59.79999923706</ele>
        <time>2015-11-16T19:35:20Z</time>
      </trkpt>
      <trkpt lat="48.84039" lon="2.32748">
        <ele>60.79999923706</ele>
        <time>2015-11-16T19:35:25Z</time>
      </trkpt>
      <trkpt lat="48.84048" lon="2.32718">
        <ele>61.20000076294</ele>
        <time>2015-11-16T19:35:30Z</time>
      </trkpt>
      <trkpt lat="48.84057" lon="2.32688">
        <ele>61.400001525879</ele>
        <time>2015-11-16T19:35:35Z</time>
      </trkpt>
      <trkpt lat="48.84065" lon="2.32661">
        <ele>61</ele>
        <time>2015-11-16T19:35:39Z</time>
      </trkpt>
      <trkpt lat="48.84068" lon="2.32655">
        <ele>60.79999923706</ele>
        <time>2015-11-16T19:35:40Z</time>
      </trkpt>
      <trkpt lat="48.84077" lon="2.32631">
        <ele>60.599998474121</ele>
        <time>2015-11-16T19:35:44Z</time>
      </trkpt>
      <trkpt lat="48.84085" lon="2.32605">
        <ele>60</ele>
        <time>2015-11-16T19:35:49Z</time>
      </trkpt>
      <trkpt lat="48.84088" lon="2.32593">
        <ele>59.79999923706</ele>
        <time>2015-11-16T19:35:52Z</time>
      </trkpt>
      <trkpt lat="48.84094" lon="2.32576">
        <ele>59.599998474121</ele>
        <time>2015-11-16T19:35:56Z</time>
      </trkpt>
      <trkpt lat="48.84103" lon="2.32551">
        <ele>60.599998474121</ele>
        <time>2015-11-16T19:36:01Z</time>
      </trkpt>
      <trkpt lat="48.84113" lon="2.32521">
        <ele>61.79999923706</ele>
        <time>2015-11-16T19:36:06Z</time>
      </trkpt>
      <trkpt lat="48.84124" lon="2.32495">
        <ele>62.20000076294</ele>
        <time>2015-11-16T19:36:11Z</time>
      </trkpt>
      <trkpt lat="48.8414" lon="2.32477">
        <ele>62</ele>
        <time>2015-11-16T19:36:16Z</time>
      </trkpt>
      <trkpt lat="48.84157" lon="2.3247">
        <ele>62</ele>
        <time>2015-11-16T19:36:20Z</time>
      </trkpt>
      <trkpt lat="48.84176" lon="2.32462">
        <ele>62.79999923706</ele>
        <time>2015-11-16T19:36:24Z</time>
      </trkpt>
      <trkpt lat="48.84195" lon="2.32457">
        <ele>63.599998474121</ele>
        <time>2015-11-16T19:36:28Z</time>
      </trkpt>
      <trkpt lat="48.84215" lon="2.32451">
        <ele>63.79999923706</ele>
        <time>2015-11-16T19:36:32Z</time>
      </trkpt>
      <trkpt lat="48.84233" lon="2.32448">
        <ele>63.79999923706</ele>
        <time>2015-11-16T19:36:36Z</time>
      </trkpt>
      <trkpt lat="48.84254" lon="2.32443">
        <ele>63.20000076294</ele>
        <time>2015-11-16T19:36:40Z</time>
      </trkpt>
      <trkpt lat="48.84274" lon="2.32438">
        <ele>62.599998474121</ele>
        <time>2015-11-16T19:36:44Z</time>
      </trkpt>
      <trkpt lat="48.84283" lon="2.32434">
        <ele>62.400001525879</ele>
        <time>2015-11-16T19:36:46Z</time>
      </trkpt>
      <trkpt lat="48.84302" lon="2.32428">
        <ele>62.400001525879</ele>
        <time>2015-11-16T19:36:51Z</time>
      </trkpt>
      <trkpt lat="48.84305" lon="2.32426">
        <ele>62.400001525879</ele>
        <time>2015-11-16T19:36:52Z</time>
      </trkpt>
      <trkpt lat="48.84326" lon="2.32428">
        <ele>62.400001525879</ele>
        <time>2015-11-16T19:36:57Z</time>
      </trkpt>
      <trkpt lat="48.84337" lon="2.32433">
        <ele>62.400001525879</ele>
        <time>2015-11-16T19:37:00Z</time>
      </trkpt>
      <trkpt lat="48.84345" lon="2.32428">
        <ele>62.400001525879</ele>
        <time>2015-11-16T19:37:07Z</time>
      </trkpt>
      <trkpt lat="48.84345" lon="2.32427">
        <ele>62.400001525879</ele>
        <time>2015-11-16T19:37:09Z</time>
      </trkpt>
      <trkpt lat="48.84362" lon="2.32423">
        <ele>62</ele>
        <time>2015-11-16T19:37:19Z</time>
      </trkpt>
      <trkpt lat="48.84362" lon="2.32413">
        <ele>61.79999923706</ele>
        <time>2015-11-16T19:37:23Z</time>
      </trkpt>
      <trkpt lat="48.84362" lon="2.32412">
        <ele>61.79999923706</ele>
        <time>2015-11-16T19:37:24Z</time>
      </trkpt>
      <trkpt lat="48.84378" lon="2.32398">
        <ele>61</ele>
        <time>2015-11-16T19:37:44Z</time>
      </trkpt>
      <trkpt lat="48.84389" lon="2.32375">
        <ele>60.400001525879</ele>
        <time>2015-11-16T19:37:49Z</time>
      </trkpt>
      <trkpt lat="48.84394" lon="2.32342">
        <ele>59.20000076294</ele>
        <time>2015-11-16T19:37:55Z</time>
      </trkpt>
      <trkpt lat="48.84393" lon="2.32314">
        <ele>59.20000076294</ele>
        <time>2015-11-16T19:37:59Z</time>
      </trkpt>
      <trkpt lat="48.8439" lon="2.32285">
        <ele>60</ele>
        <time>2015-11-16T19:38:03Z</time>
      </trkpt>
      <trkpt lat="48.8439" lon="2.32265">
        <ele>60.400001525879</ele>
        <time>2015-11-16T19:38:07Z</time>
      </trkpt>
      <trkpt lat="48.84369" lon="2.32253">
        <ele>62</ele>
        <time>2015-11-16T19:38:12Z</time>
      </trkpt>
      <trkpt lat="48.8435" lon="2.32245">
        <ele>62.599998474121</ele>
        <time>2015-11-16T19:38:16Z</time>
      </trkpt>
      <trkpt lat="48.84334" lon="2.32231">
        <ele>61.20000076294</ele>
        <time>2015-11-16T19:38:20Z</time>
      </trkpt>
      <trkpt lat="48.8432" lon="2.32218">
        <ele>59.79999923706</ele>
        <time>2015-11-16T19:38:24Z</time>
      </trkpt>
      <trkpt lat="48.84302" lon="2.32202">
        <ele>58.20000076294</ele>
        <time>2015-11-16T19:38:29Z</time>
      </trkpt>
      <trkpt lat="48.84299" lon="2.32199">
        <ele>57.79999923706</ele>
        <time>2015-11-16T19:38:30Z</time>
      </trkpt>
      <trkpt lat="48.84281" lon="2.32183">
        <ele>56.20000076294</ele>
        <time>2015-11-16T19:38:36Z</time>
      </trkpt>
      <trkpt lat="48.84263" lon="2.32168">
        <ele>55</ele>
        <time>2015-11-16T19:38:41Z</time>
      </trkpt>
      <trkpt lat="48.84258" lon="2.32155">
        <ele>54.400001525879</ele>
        <time>2015-11-16T19:38:43Z</time>
      </trkpt>
      <trkpt lat="48.84257" lon="2.32127">
        <ele>54.400001525879</ele>
        <time>2015-11-16T19:38:50Z</time>
      </trkpt>
      <trkpt lat="48.84254" lon="2.32127">
        <ele>54.20000076294</ele>
        <time>2015-11-16T19:38:53Z</time>
      </trkpt>
      <trkpt lat="48.84255" lon="2.32126">
        <ele>54.20000076294</ele>
        <time>2015-11-16T19:38:55Z</time>
      </trkpt>
      <trkpt lat="48.84239" lon="2.32107">
        <ele>53.20000076294</ele>
        <time>2015-11-16T19:39:14Z</time>
      </trkpt>
      <trkpt lat="48.84224" lon="2.3209">
        <ele>52.400001525879</ele>
        <time>2015-11-16T19:39:22Z</time>
      </trkpt>
      <trkpt lat="48.84206" lon="2.32073">
        <ele>52</ele>
        <time>2015-11-16T19:39:29Z</time>
      </trkpt>
      <trkpt lat="48.84199" lon="2.32056">
        <ele>53.599998474121</ele>
        <time>2015-11-16T19:39:33Z</time>
      </trkpt>
      <trkpt lat="48.84189" lon="2.32028">
        <ele>56.400001525879</ele>
        <time>2015-11-16T19:39:37Z</time>
      </trkpt>
      <trkpt lat="48.84184" lon="2.32014">
        <ele>58.400001525879</ele>
        <time>2015-11-16T19:39:39Z</time>
      </trkpt>
      <trkpt lat="48.84178" lon="2.31991">
        <ele>61.400001525879</ele>
        <time>2015-11-16T19:39:42Z</time>
      </trkpt>
      <trkpt lat="48.84171" lon="2.31961">
        <ele>63.599998474121</ele>
        <time>2015-11-16T19:39:46Z</time>
      </trkpt>
      <trkpt lat="48.84162" lon="2.31935">
        <ele>66</ele>
        <time>2015-11-16T19:39:51Z</time>
      </trkpt>
      <trkpt lat="48.84156" lon="2.3193">
        <ele>66.800003051758</ele>
        <time>2015-11-16T19:39:53Z</time>
      </trkpt>
      <trkpt lat="48.8414" lon="2.31918">
        <ele>68.599998474121</ele>
        <time>2015-11-16T19:39:57Z</time>
      </trkpt>
      <trkpt lat="48.84138" lon="2.31879">
        <ele>68.599998474121</ele>
        <time>2015-11-16T19:40:01Z</time>
      </trkpt>
      <trkpt lat="48.84136" lon="2.31871">
        <ele>68.599998474121</ele>
        <time>2015-11-16T19:40:02Z</time>
      </trkpt>
      <trkpt lat="48.8413" lon="2.31848">
        <ele>69</ele>
        <time>2015-11-16T19:40:05Z</time>
      </trkpt>
      <trkpt lat="48.84118" lon="2.31827">
        <ele>69.400001525879</ele>
        <time>2015-11-16T19:40:09Z</time>
      </trkpt>
      <trkpt lat="48.84111" lon="2.31798">
        <ele>68.599998474121</ele>
        <time>2015-11-16T19:40:15Z</time>
      </trkpt>
      <trkpt lat="48.84099" lon="2.31785">
        <ele>68.400001525879</ele>
        <time>2015-11-16T19:40:19Z</time>
      </trkpt>
      <trkpt lat="48.84085" lon="2.3176">
        <ele>67.800003051758</ele>
        <time>2015-11-16T19:40:24Z</time>
      </trkpt>
      <trkpt lat="48.84076" lon="2.3175">
        <ele>67.400001525879</ele>
        <time>2015-11-16T19:40:27Z</time>
      </trkpt>
      <trkpt lat="48.8407" lon="2.31718">
        <ele>66</ele>
        <time>2015-11-16T19:40:31Z</time>
      </trkpt>
      <trkpt lat="48.84066" lon="2.31702">
        <ele>65.400001525879</ele>
        <time>2015-11-16T19:40:33Z</time>
      </trkpt>
      <trkpt lat="48.84061" lon="2.31666">
        <ele>64.599998474121</ele>
        <time>2015-11-16T19:40:37Z</time>
      </trkpt>
      <trkpt lat="48.8406" lon="2.31658">
        <ele>64.599998474121</ele>
        <time>2015-11-16T19:40:38Z</time>
      </trkpt>
      <trkpt lat="48.84053" lon="2.3163">
        <ele>65.199996948242</ele>
        <time>2015-11-16T19:40:42Z</time>
      </trkpt>
      <trkpt lat="48.84052" lon="2.31623">
        <ele>65.400001525879</ele>
        <time>2015-11-16T19:40:43Z</time>
      </trkpt>
      <trkpt lat="48.84051" lon="2.316">
        <ele>65.400001525879</ele>
        <time>2015-11-16T19:40:46Z</time>
      </trkpt>
      <trkpt lat="48.8405" lon="2.31578">
        <ele>65</ele>
        <time>2015-11-16T19:40:50Z</time>
      </trkpt>
      <trkpt lat="48.8405" lon="2.31557">
        <ele>64.800003051758</ele>
        <time>2015-11-16T19:40:53Z</time>
      </trkpt>
      <trkpt lat="48.84054" lon="2.31527">
        <ele>64.199996948242</ele>
        <time>2015-11-16T19:40:57Z</time>
      </trkpt>
      <trkpt lat="48.84066" lon="2.31502">
        <ele>64</ele>
        <time>2015-11-16T19:41:00Z</time>
      </trkpt>
      <trkpt lat="48.84081" lon="2.31483">
        <ele>63.400001525879</ele>
        <time>2015-11-16T19:41:03Z</time>
      </trkpt>
      <trkpt lat="48.84085" lon="2.31477">
        <ele>63.20000076294</ele>
        <time>2015-11-16T19:41:04Z</time>
      </trkpt>
      <trkpt lat="48.84103" lon="2.31456">
        <ele>62.20000076294</ele>
        <time>2015-11-16T19:41:08Z</time>
      </trkpt>
      <trkpt lat="48.84119" lon="2.31435">
        <ele>61.20000076294</ele>
        <time>2015-11-16T19:41:12Z</time>
      </trkpt>
      <trkpt lat="48.84133" lon="2.31417">
        <ele>60.400001525879</ele>
        <time>2015-11-16T19:41:16Z</time>
      </trkpt>
      <trkpt lat="48.8414" lon="2.31409">
        <ele>60</ele>
        <time>2015-11-16T19:41:18Z</time>
      </trkpt>
      <trkpt lat="48.8415" lon="2.31395">
        <ele>59.20000076294</ele>
        <time>2015-11-16T19:41:22Z</time>
      </trkpt>
      <trkpt lat="48.84167" lon="2.31382">
        <ele>57.79999923706</ele>
        <time>2015-11-16T19:41:27Z</time>
      </trkpt>
      <trkpt lat="48.84179" lon="2.31368">
        <ele>55.79999923706</ele>
        <time>2015-11-16T19:41:31Z</time>
      </trkpt>
      <trkpt lat="48.84195" lon="2.31354">
        <ele>53.79999923706</ele>
        <time>2015-11-16T19:41:35Z</time>
      </trkpt>
      <trkpt lat="48.84212" lon="2.31341">
        <ele>52.400001525879</ele>
        <time>2015-11-16T19:41:39Z</time>
      </trkpt>
      <trkpt lat="48.8423" lon="2.31324">
        <ele>52</ele>
        <time>2015-11-16T19:41:43Z</time>
      </trkpt>
      <trkpt lat="48.84245" lon="2.3131">
        <ele>52</ele>
        <time>2015-11-16T19:41:46Z</time>
      </trkpt>
      <trkpt lat="48.84264" lon="2.31296">
        <ele>51.400001525879</ele>
        <time>2015-11-16T19:41:50Z</time>
      </trkpt>
      <trkpt lat="48.84283" lon="2.31279">
        <ele>50.599998474121</ele>
        <time>2015-11-16T19:41:54Z</time>
      </trkpt>
      <trkpt lat="48.84299" lon="2.31268">
        <ele>50</ele>
        <time>2015-11-16T19:41:57Z</time>
      </trkpt>
      <trkpt lat="48.84317" lon="2.31255">
        <ele>50</ele>
        <time>2015-11-16T19:42:00Z</time>
      </trkpt>
      <trkpt lat="48.84335" lon="2.31242">
        <ele>50</ele>
        <time>2015-11-16T19:42:03Z</time>
      </trkpt>
      <trkpt lat="48.84356" lon="2.31229">
        <ele>49.79999923706</ele>
        <time>2015-11-16T19:42:06Z</time>
      </trkpt>
      <trkpt lat="48.84376" lon="2.31215">
        <ele>49.599998474121</ele>
        <time>2015-11-16T19:42:09Z</time>
      </trkpt>
      <trkpt lat="48.84394" lon="2.31202">
        <ele>49.400001525879</ele>
        <time>2015-11-16T19:42:12Z</time>
      </trkpt>
      <trkpt lat="48.84412" lon="2.31188">
        <ele>48.20000076294</ele>
        <time>2015-11-16T19:42:15Z</time>
      </trkpt>
      <trkpt lat="48.84429" lon="2.31173">
        <ele>46.79999923706</ele>
        <time>2015-11-16T19:42:18Z</time>
      </trkpt>
      <trkpt lat="48.84449" lon="2.31154">
        <ele>45.20000076294</ele>
        <time>2015-11-16T19:42:22Z</time>
      </trkpt>
      <trkpt lat="48.8447" lon="2.31138">
        <ele>44</ele>
        <time>2015-11-16T19:42:26Z</time>
      </trkpt>
      <trkpt lat="48.84487" lon="2.31126">
        <ele>42.79999923706</ele>
        <time>2015-11-16T19:42:30Z</time>
      </trkpt>
      <trkpt lat="48.84501" lon="2.31116">
        <ele>43.20000076294</ele>
        <time>2015-11-16T19:42:35Z</time>
      </trkpt>
      <trkpt lat="48.84504" lon="2.31112">
        <ele>43.20000076294</ele>
        <time>2015-11-16T19:42:37Z</time>
      </trkpt>
      <trkpt lat="48.84512" lon="2.3111">
        <ele>43.20000076294</ele>
        <time>2015-11-16T19:42:49Z</time>
      </trkpt>
      <trkpt lat="48.84528" lon="2.31094">
        <ele>43.79999923706</ele>
        <time>2015-11-16T19:43:04Z</time>
      </trkpt>
      <trkpt lat="48.84538" lon="2.31068">
        <ele>44.20000076294</ele>
        <time>2015-11-16T19:43:11Z</time>
      </trkpt>
      <trkpt lat="48.84546" lon="2.31039">
        <ele>44.20000076294</ele>
        <time>2015-11-16T19:43:17Z</time>
      </trkpt>
      <trkpt lat="48.84555" lon="2.31013">
        <ele>44.599998474121</ele>
        <time>2015-11-16T19:43:22Z</time>
      </trkpt>
      <trkpt lat="48.84563" lon="2.30986">
        <ele>45</ele>
        <time>2015-11-16T19:43:26Z</time>
      </trkpt>
      <trkpt lat="48.84573" lon="2.30961">
        <ele>45.20000076294</ele>
        <time>2015-11-16T19:43:30Z</time>
      </trkpt>
      <trkpt lat="48.84583" lon="2.30933">
        <ele>44.400001525879</ele>
        <time>2015-11-16T19:43:35Z</time>
      </trkpt>
      <trkpt lat="48.84591" lon="2.30905">
        <ele>44</ele>
        <time>2015-11-16T19:43:40Z</time>
      </trkpt>
      <trkpt lat="48.84599" lon="2.30876">
        <ele>43</ele>
        <time>2015-11-16T19:43:46Z</time>
      </trkpt>
      <trkpt lat="48.84609" lon="2.30851">
        <ele>41.79999923706</ele>
        <time>2015-11-16T19:43:51Z</time>
      </trkpt>
      <trkpt lat="48.84629" lon="2.30842">
        <ele>42.79999923706</ele>
        <time>2015-11-16T19:43:57Z</time>
      </trkpt>
      <trkpt lat="48.84647" lon="2.30824">
        <ele>44</ele>
        <time>2015-11-16T19:44:02Z</time>
      </trkpt>
      <trkpt lat="48.84664" lon="2.30801">
        <ele>45.599998474121</ele>
        <time>2015-11-16T19:44:07Z</time>
      </trkpt>
      <trkpt lat="48.84676" lon="2.30781">
        <ele>46.599998474121</ele>
        <time>2015-11-16T19:44:11Z</time>
      </trkpt>
      <trkpt lat="48.84691" lon="2.30755">
        <ele>48</ele>
        <time>2015-11-16T19:44:16Z</time>
      </trkpt>
      <trkpt lat="48.84705" lon="2.30736">
        <ele>48.400001525879</ele>
        <time>2015-11-16T19:44:21Z</time>
      </trkpt>
      <trkpt lat="48.84707" lon="2.30732">
        <ele>48.400001525879</ele>
        <time>2015-11-16T19:44:22Z</time>
      </trkpt>
      <trkpt lat="48.84714" lon="2.30718">
        <ele>48.599998474121</ele>
        <time>2015-11-16T19:44:29Z</time>
      </trkpt>
      <trkpt lat="48.84729" lon="2.30695">
        <ele>49</ele>
        <time>2015-11-16T19:44:39Z</time>
      </trkpt>
      <trkpt lat="48.84744" lon="2.30673">
        <ele>49.599998474121</ele>
        <time>2015-11-16T19:44:44Z</time>
      </trkpt>
      <trkpt lat="48.84758" lon="2.30649">
        <ele>49.79999923706</ele>
        <time>2015-11-16T19:44:49Z</time>
      </trkpt>
      <trkpt lat="48.84772" lon="2.30626">
        <ele>49.20000076294</ele>
        <time>2015-11-16T19:44:54Z</time>
      </trkpt>
      <trkpt lat="48.84786" lon="2.30606">
        <ele>47.400001525879</ele>
        <time>2015-11-16T19:44:59Z</time>
      </trkpt>
      <trkpt lat="48.848" lon="2.30584">
        <ele>45.79999923706</ele>
        <time>2015-11-16T19:45:04Z</time>
      </trkpt>
      <trkpt lat="48.84814" lon="2.30564">
        <ele>44.79999923706</ele>
        <time>2015-11-16T19:45:08Z</time>
      </trkpt>
      <trkpt lat="48.84827" lon="2.30543">
        <ele>44.20000076294</ele>
        <time>2015-11-16T19:45:12Z</time>
      </trkpt>
      <trkpt lat="48.84841" lon="2.30519">
        <ele>44.599998474121</ele>
        <time>2015-11-16T19:45:16Z</time>
      </trkpt>
      <trkpt lat="48.84855" lon="2.30495">
        <ele>45</ele>
        <time>2015-11-16T19:45:20Z</time>
      </trkpt>
      <trkpt lat="48.84869" lon="2.30472">
        <ele>43.599998474121</ele>
        <time>2015-11-16T19:45:24Z</time>
      </trkpt>
      <trkpt lat="48.84883" lon="2.30449">
        <ele>42</ele>
        <time>2015-11-16T19:45:28Z</time>
      </trkpt>
      <trkpt lat="48.84898" lon="2.30427">
        <ele>40.79999923706</ele>
        <time>2015-11-16T19:45:32Z</time>
      </trkpt>
      <trkpt lat="48.84909" lon="2.30412">
        <ele>39.79999923706</ele>
        <time>2015-11-16T19:45:35Z</time>
      </trkpt>
      <trkpt lat="48.8492" lon="2.30394">
        <ele>38.599998474121</ele>
        <time>2015-11-16T19:45:39Z</time>
      </trkpt>
      <trkpt lat="48.84924" lon="2.30387">
        <ele>39.20000076294</ele>
        <time>2015-11-16T19:45:41Z</time>
      </trkpt>
      <trkpt lat="48.84932" lon="2.30378">
        <ele>40</ele>
        <time>2015-11-16T19:45:46Z</time>
      </trkpt>
      <trkpt lat="48.84945" lon="2.3036">
        <ele>41.400001525879</ele>
        <time>2015-11-16T19:45:59Z</time>
      </trkpt>
      <trkpt lat="48.8496" lon="2.30341">
        <ele>42.20000076294</ele>
        <time>2015-11-16T19:46:04Z</time>
      </trkpt>
      <trkpt lat="48.84974" lon="2.30321">
        <ele>42</ele>
        <time>2015-11-16T19:46:08Z</time>
      </trkpt>
      <trkpt lat="48.84987" lon="2.30299">
        <ele>41.20000076294</ele>
        <time>2015-11-16T19:46:12Z</time>
      </trkpt>
      <trkpt lat="48.85002" lon="2.30276">
        <ele>41</ele>
        <time>2015-11-16T19:46:16Z</time>
      </trkpt>
      <trkpt lat="48.85016" lon="2.30252">
        <ele>41.20000076294</ele>
        <time>2015-11-16T19:46:20Z</time>
      </trkpt>
      <trkpt lat="48.85029" lon="2.3023">
        <ele>41.79999923706</ele>
        <time>2015-11-16T19:46:24Z</time>
      </trkpt>
      <trkpt lat="48.85041" lon="2.30208">
        <ele>42.599998474121</ele>
        <time>2015-11-16T19:46:28Z</time>
      </trkpt>
      <trkpt lat="48.85052" lon="2.30193">
        <ele>43.20000076294</ele>
        <time>2015-11-16T19:46:31Z</time>
      </trkpt>
      <trkpt lat="48.85067" lon="2.30171">
        <ele>44.20000076294</ele>
        <time>2015-11-16T19:46:35Z</time>
      </trkpt>
      <trkpt lat="48.85081" lon="2.30147">
        <ele>45.20000076294</ele>
        <time>2015-11-16T19:46:39Z</time>
      </trkpt>
      <trkpt lat="48.85095" lon="2.30124">
        <ele>45.20000076294</ele>
        <time>2015-11-16T19:46:43Z</time>
      </trkpt>
      <trkpt lat="48.85107" lon="2.30103">
        <ele>44.79999923706</ele>
        <time>2015-11-16T19:46:47Z</time>
      </trkpt>
      <trkpt lat="48.85117" lon="2.30079">
        <ele>45.20000076294</ele>
        <time>2015-11-16T19:46:51Z</time>
      </trkpt>
      <trkpt lat="48.85127" lon="2.30055">
        <ele>46.20000076294</ele>
        <time>2015-11-16T19:46:55Z</time>
      </trkpt>
      <trkpt lat="48.85142" lon="2.30032">
        <ele>47.20000076294</ele>
        <time>2015-11-16T19:47:00Z</time>
      </trkpt>
      <trkpt lat="48.85156" lon="2.3001">
        <ele>48.599998474121</ele>
        <time>2015-11-16T19:47:06Z</time>
      </trkpt>
      <trkpt lat="48.8516" lon="2.30004">
        <ele>49</ele>
        <time>2015-11-16T19:47:08Z</time>
      </trkpt>
      <trkpt lat="48.85168" lon="2.29992">
        <ele>49.400001525879</ele>
        <time>2015-11-16T19:47:12Z</time>
      </trkpt>
      <trkpt lat="48.8518" lon="2.2997">
        <ele>49.400001525879</ele>
        <time>2015-11-16T19:47:18Z</time>
      </trkpt>
      <trkpt lat="48.85192" lon="2.29944">
        <ele>48.599998474121</ele>
        <time>2015-11-16T19:47:23Z</time>
      </trkpt>
      <trkpt lat="48.85205" lon="2.29924">
        <ele>47.79999923706</ele>
        <time>2015-11-16T19:47:27Z</time>
      </trkpt>
      <trkpt lat="48.8522" lon="2.299">
        <ele>47.79999923706</ele>
        <time>2015-11-16T19:47:32Z</time>
      </trkpt>
      <trkpt lat="48.85235" lon="2.29875">
        <ele>47.20000076294</ele>
        <time>2015-11-16T19:47:37Z</time>
      </trkpt>
      <trkpt lat="48.8525" lon="2.29851">
        <ele>45</ele>
        <time>2015-11-16T19:47:41Z</time>
      </trkpt>
      <trkpt lat="48.85254" lon="2.29845">
        <ele>44.400001525879</ele>
        <time>2015-11-16T19:47:42Z</time>
      </trkpt>
      <trkpt lat="48.85271" lon="2.29822">
        <ele>42.599998474121</ele>
        <time>2015-11-16T19:47:46Z</time>
      </trkpt>
      <trkpt lat="48.85287" lon="2.298">
        <ele>41.599998474121</ele>
        <time>2015-11-16T19:47:50Z</time>
      </trkpt>
      <trkpt lat="48.85304" lon="2.29779">
        <ele>41.20000076294</ele>
        <time>2015-11-16T19:47:54Z</time>
      </trkpt>
      <trkpt lat="48.85307" lon="2.29772">
        <ele>41.599998474121</ele>
        <time>2015-11-16T19:47:55Z</time>
      </trkpt>
      <trkpt lat="48.8532" lon="2.29749">
        <ele>43.20000076294</ele>
        <time>2015-11-16T19:47:59Z</time>
      </trkpt>
      <trkpt lat="48.85335" lon="2.29726">
        <ele>45.599998474121</ele>
        <time>2015-11-16T19:48:03Z</time>
      </trkpt>
      <trkpt lat="48.85351" lon="2.29701">
        <ele>44</ele>
        <time>2015-11-16T19:48:07Z</time>
      </trkpt>
      <trkpt lat="48.85366" lon="2.29678">
        <ele>42.20000076294</ele>
        <time>2015-11-16T19:48:11Z</time>
      </trkpt>
      <trkpt lat="48.85381" lon="2.29658">
        <ele>42</ele>
        <time>2015-11-16T19:48:15Z</time>
      </trkpt>
      <trkpt lat="48.85395" lon="2.29638">
        <ele>42.20000076294</ele>
        <time>2015-11-16T19:48:19Z</time>
      </trkpt>
      <trkpt lat="48.8541" lon="2.29615">
        <ele>42.400001525879</ele>
        <time>2015-11-16T19:48:23Z</time>
      </trkpt>
      <trkpt lat="48.85426" lon="2.29591">
        <ele>42.599998474121</ele>
        <time>2015-11-16T19:48:27Z</time>
      </trkpt>
      <trkpt lat="48.85441" lon="2.29565">
        <ele>43.20000076294</ele>
        <time>2015-11-16T19:48:31Z</time>
      </trkpt>
      <trkpt lat="48.85456" lon="2.29541">
        <ele>42.79999923706</ele>
        <time>2015-11-16T19:48:35Z</time>
      </trkpt>
      <trkpt lat="48.85471" lon="2.29516">
        <ele>43.400001525879</ele>
        <time>2015-11-16T19:48:39Z</time>
      </trkpt>
      <trkpt lat="48.85486" lon="2.29491">
        <ele>45</ele>
        <time>2015-11-16T19:48:43Z</time>
      </trkpt>
      <trkpt lat="48.85503" lon="2.29467">
        <ele>44.599998474121</ele>
        <time>2015-11-16T19:48:47Z</time>
      </trkpt>
      <trkpt lat="48.85518" lon="2.29444">
        <ele>44</ele>
        <time>2015-11-16T19:48:51Z</time>
      </trkpt>
      <trkpt lat="48.85522" lon="2.29437">
        <ele>43.79999923706</ele>
        <time>2015-11-16T19:48:52Z</time>
      </trkpt>
      <trkpt lat="48.85537" lon="2.29411">
        <ele>44</ele>
        <time>2015-11-16T19:48:56Z</time>
      </trkpt>
      <trkpt lat="48.85551" lon="2.29385">
        <ele>43.599998474121</ele>
        <time>2015-11-16T19:49:00Z</time>
      </trkpt>
      <trkpt lat="48.85565" lon="2.2936">
        <ele>43.400001525879</ele>
        <time>2015-11-16T19:49:04Z</time>
      </trkpt>
      <trkpt lat="48.85579" lon="2.29335">
        <ele>42.79999923706</ele>
        <time>2015-11-16T19:49:08Z</time>
      </trkpt>
      <trkpt lat="48.85591" lon="2.29313">
        <ele>43</ele>
        <time>2015-11-16T19:49:12Z</time>
      </trkpt>
      <trkpt lat="48.85605" lon="2.29294">
        <ele>41.79999923706</ele>
        <time>2015-11-16T19:49:16Z</time>
      </trkpt>
      <trkpt lat="48.85615" lon="2.29281">
        <ele>41.400001525879</ele>
        <time>2015-11-16T19:49:19Z</time>
      </trkpt>
      <trkpt lat="48.85631" lon="2.29264">
        <ele>41.20000076294</ele>
        <time>2015-11-16T19:49:23Z</time>
      </trkpt>
      <trkpt lat="48.85649" lon="2.29243">
        <ele>43.20000076294</ele>
        <time>2015-11-16T19:49:28Z</time>
      </trkpt>
      <trkpt lat="48.85663" lon="2.29226">
        <ele>44.79999923706</ele>
        <time>2015-11-16T19:49:32Z</time>
      </trkpt>
      <trkpt lat="48.85673" lon="2.29212">
        <ele>45</ele>
        <time>2015-11-16T19:49:35Z</time>
      </trkpt>
      <trkpt lat="48.85688" lon="2.29193">
        <ele>45</ele>
        <time>2015-11-16T19:49:39Z</time>
      </trkpt>
      <trkpt lat="48.85704" lon="2.29169">
        <ele>43.79999923706</ele>
        <time>2015-11-16T19:49:44Z</time>
      </trkpt>
      <trkpt lat="48.85714" lon="2.29157">
        <ele>43</ele>
        <time>2015-11-16T19:49:47Z</time>
      </trkpt>
      <trkpt lat="48.85731" lon="2.29142">
        <ele>41.400001525879</ele>
        <time>2015-11-16T19:49:53Z</time>
      </trkpt>
      <trkpt lat="48.85733" lon="2.29141">
        <ele>41.400001525879</ele>
        <time>2015-11-16T19:49:54Z</time>
      </trkpt>
      <trkpt lat="48.85741" lon="2.29128">
        <ele>40.20000076294</ele>
        <time>2015-11-16T19:49:58Z</time>
      </trkpt>
      <trkpt lat="48.85746" lon="2.29116">
        <ele>38.79999923706</ele>
        <time>2015-11-16T19:50:01Z</time>
      </trkpt>
      <trkpt lat="48.85744" lon="2.29089">
        <ele>36.400001525879</ele>
        <time>2015-11-16T19:50:06Z</time>
      </trkpt>
      <trkpt lat="48.85738" lon="2.29079">
        <ele>35.599998474121</ele>
        <time>2015-11-16T19:50:09Z</time>
      </trkpt>
      <trkpt lat="48.85735" lon="2.29072">
        <ele>35.79999923706</ele>
        <time>2015-11-16T19:50:12Z</time>
      </trkpt>
      <trkpt lat="48.85734" lon="2.2907">
        <ele>35.79999923706</ele>
        <time>2015-11-16T19:50:14Z</time>
      </trkpt>
      <trkpt lat="48.85748" lon="2.29076">
        <ele>35.20000076294</ele>
        <time>2015-11-16T19:51:55Z</time>
      </trkpt>
      <trkpt lat="48.85729" lon="2.2906">
        <ele>36.20000076294</ele>
        <time>2015-11-16T19:52:14Z</time>
      </trkpt>
      <trkpt lat="48.85714" lon="2.29043">
        <ele>36.79999923706</ele>
        <time>2015-11-16T19:52:19Z</time>
      </trkpt>
      <trkpt lat="48.85698" lon="2.29026">
        <ele>37.599998474121</ele>
        <time>2015-11-16T19:52:24Z</time>
      </trkpt>
      <trkpt lat="48.85682" lon="2.29013">
        <ele>37.400001525879</ele>
        <time>2015-11-16T19:52:28Z</time>
      </trkpt>
      <trkpt lat="48.85665" lon="2.29001">
        <ele>36.20000076294</ele>
        <time>2015-11-16T19:52:32Z</time>
      </trkpt>
      <trkpt lat="48.85643" lon="2.28989">
        <ele>34.20000076294</ele>
        <time>2015-11-16T19:52:37Z</time>
      </trkpt>
      <trkpt lat="48.85625" lon="2.28981">
        <ele>32.400001525879</ele>
        <time>2015-11-16T19:52:41Z</time>
      </trkpt>
      <trkpt lat="48.85608" lon="2.28973">
        <ele>30.799999237061</ele>
        <time>2015-11-16T19:52:45Z</time>
      </trkpt>
      <trkpt lat="48.8559" lon="2.28966">
        <ele>32.400001525879</ele>
        <time>2015-11-16T19:52:49Z</time>
      </trkpt>
      <trkpt lat="48.85572" lon="2.28958">
        <ele>34.599998474121</ele>
        <time>2015-11-16T19:52:53Z</time>
      </trkpt>
      <trkpt lat="48.85553" lon="2.28951">
        <ele>36.599998474121</ele>
        <time>2015-11-16T19:52:57Z</time>
      </trkpt>
      <trkpt lat="48.85536" lon="2.28941">
        <ele>38</ele>
        <time>2015-11-16T19:53:01Z</time>
      </trkpt>
      <trkpt lat="48.85523" lon="2.28932">
        <ele>39.20000076294</ele>
        <time>2015-11-16T19:53:05Z</time>
      </trkpt>
      <trkpt lat="48.8551" lon="2.28922">
        <ele>39.79999923706</ele>
        <time>2015-11-16T19:53:09Z</time>
      </trkpt>
      <trkpt lat="48.85491" lon="2.28906">
        <ele>40.599998474121</ele>
        <time>2015-11-16T19:53:14Z</time>
      </trkpt>
      <trkpt lat="48.85474" lon="2.28888">
        <ele>41</ele>
        <time>2015-11-16T19:53:20Z</time>
      </trkpt>
      <trkpt lat="48.85473" lon="2.28884">
        <ele>41</ele>
        <time>2015-11-16T19:53:21Z</time>
      </trkpt>
      <trkpt lat="48.8548" lon="2.28858">
        <ele>39.599998474121</ele>
        <time>2015-11-16T19:53:27Z</time>
      </trkpt>
      <trkpt lat="48.85487" lon="2.28851">
        <ele>39</ele>
        <time>2015-11-16T19:53:29Z</time>
      </trkpt>
      <trkpt lat="48.85506" lon="2.28831">
        <ele>37</ele>
        <time>2015-11-16T19:53:34Z</time>
      </trkpt>
      <trkpt lat="48.85525" lon="2.28811">
        <ele>35.20000076294</ele>
        <time>2015-11-16T19:53:38Z</time>
      </trkpt>
      <trkpt lat="48.85543" lon="2.28794">
        <ele>34</ele>
        <time>2015-11-16T19:53:42Z</time>
      </trkpt>
      <trkpt lat="48.85558" lon="2.28777">
        <ele>33</ele>
        <time>2015-11-16T19:53:46Z</time>
      </trkpt>
      <trkpt lat="48.85564" lon="2.28769">
        <ele>33</ele>
        <time>2015-11-16T19:53:49Z</time>
      </trkpt>
      <trkpt lat="48.85569" lon="2.28767">
        <ele>33</ele>
        <time>2015-11-16T19:53:51Z</time>
      </trkpt>
      <trkpt lat="48.85572" lon="2.28764">
        <ele>33</ele>
        <time>2015-11-16T19:53:53Z</time>
      </trkpt>
      <trkpt lat="48.85567" lon="2.28758">
        <ele>33</ele>
        <time>2015-11-16T19:54:00Z</time>
      </trkpt>
      <trkpt lat="48.85551" lon="2.28753">
        <ele>33</ele>
        <time>2015-11-16T19:54:12Z</time>
      </trkpt>
      <trkpt lat="48.85549" lon="2.28747">
        <ele>33</ele>
        <time>2015-11-16T19:54:18Z</time>
      </trkpt>
      <trkpt lat="48.85546" lon="2.28742">
        <ele>32.79999923706</ele>
        <time>2015-11-16T19:55:41Z</time>
      </trkpt>
      <trkpt lat="48.85535" lon="2.28725">
        <ele>32.400001525879</ele>
        <time>2015-11-16T19:56:16Z</time>
      </trkpt>
      <trkpt lat="48.85521" lon="2.28706">
        <ele>32</ele>
        <time>2015-11-16T19:56:23Z</time>
      </trkpt>
      <trkpt lat="48.85508" lon="2.28682">
        <ele>31.39999961853</ele>
        <time>2015-11-16T19:56:30Z</time>
      </trkpt>
      <trkpt lat="48.85492" lon="2.28663">
        <ele>31</ele>
        <time>2015-11-16T19:56:36Z</time>
      </trkpt>
      <trkpt lat="48.85476" lon="2.28642">
        <ele>31.200000762939</ele>
        <time>2015-11-16T19:56:42Z</time>
      </trkpt>
      <trkpt lat="48.85463" lon="2.28621">
        <ele>31.60000038147</ele>
        <time>2015-11-16T19:56:48Z</time>
      </trkpt>
      <trkpt lat="48.85448" lon="2.28602">
        <ele>31.799999237061</ele>
        <time>2015-11-16T19:56:54Z</time>
      </trkpt>
      <trkpt lat="48.85432" lon="2.2858">
        <ele>31.799999237061</ele>
        <time>2015-11-16T19:57:00Z</time>
      </trkpt>
      <trkpt lat="48.85416" lon="2.2856">
        <ele>31</ele>
        <time>2015-11-16T19:57:07Z</time>
      </trkpt>
      <trkpt lat="48.85402" lon="2.2854">
        <ele>30.39999961853</ele>
        <time>2015-11-16T19:57:14Z</time>
      </trkpt>
      <trkpt lat="48.85389" lon="2.28519">
        <ele>30.39999961853</ele>
        <time>2015-11-16T19:57:22Z</time>
      </trkpt>
      <trkpt lat="48.85375" lon="2.28498">
        <ele>30.200000762939</ele>
        <time>2015-11-16T19:57:30Z</time>
      </trkpt>
      <trkpt lat="48.85361" lon="2.2848">
        <ele>28.60000038147</ele>
        <time>2015-11-16T19:57:35Z</time>
      </trkpt>
      <trkpt lat="48.85347" lon="2.28458">
        <ele>27.799999237061</ele>
        <time>2015-11-16T19:57:40Z</time>
      </trkpt>
      <trkpt lat="48.85331" lon="2.28435">
        <ele>27.799999237061</ele>
        <time>2015-11-16T19:57:45Z</time>
      </trkpt>
      <trkpt lat="48.85317" lon="2.28416">
        <ele>27.60000038147</ele>
        <time>2015-11-16T19:57:50Z</time>
      </trkpt>
      <trkpt lat="48.85303" lon="2.28396">
        <ele>27.200000762939</ele>
        <time>2015-11-16T19:57:56Z</time>
      </trkpt>
      <trkpt lat="48.85288" lon="2.28376">
        <ele>26.799999237061</ele>
        <time>2015-11-16T19:58:02Z</time>
      </trkpt>
      <trkpt lat="48.85274" lon="2.28356">
        <ele>26.39999961853</ele>
        <time>2015-11-16T19:58:08Z</time>
      </trkpt>
      <trkpt lat="48.8526" lon="2.28335">
        <ele>26.799999237061</ele>
        <time>2015-11-16T19:58:14Z</time>
      </trkpt>
      <trkpt lat="48.85247" lon="2.28316">
        <ele>27.200000762939</ele>
        <time>2015-11-16T19:58:20Z</time>
      </trkpt>
      <trkpt lat="48.85233" lon="2.28296">
        <ele>27.60000038147</ele>
        <time>2015-11-16T19:58:25Z</time>
      </trkpt>
      <trkpt lat="48.85218" lon="2.28275">
        <ele>28</ele>
        <time>2015-11-16T19:58:30Z</time>
      </trkpt>
      <trkpt lat="48.85204" lon="2.28256">
        <ele>28.60000038147</ele>
        <time>2015-11-16T19:58:36Z</time>
      </trkpt>
      <trkpt lat="48.8519" lon="2.28235">
        <ele>29.39999961853</ele>
        <time>2015-11-16T19:58:43Z</time>
      </trkpt>
      <trkpt lat="48.85176" lon="2.28216">
        <ele>30.200000762939</ele>
        <time>2015-11-16T19:58:49Z</time>
      </trkpt>
      <trkpt lat="48.85162" lon="2.28197">
        <ele>30.799999237061</ele>
        <time>2015-11-16T19:58:55Z</time>
      </trkpt>
      <trkpt lat="48.85147" lon="2.28175">
        <ele>31.60000038147</ele>
        <time>2015-11-16T19:59:01Z</time>
      </trkpt>
      <trkpt lat="48.85132" lon="2.28155">
        <ele>32</ele>
        <time>2015-11-16T19:59:06Z</time>
      </trkpt>
      <trkpt lat="48.85116" lon="2.28135">
        <ele>32</ele>
        <time>2015-11-16T19:59:12Z</time>
      </trkpt>
      <trkpt lat="48.85101" lon="2.28114">
        <ele>31.60000038147</ele>
        <time>2015-11-16T19:59:18Z</time>
      </trkpt>
      <trkpt lat="48.85087" lon="2.28092">
        <ele>30.39999961853</ele>
        <time>2015-11-16T19:59:23Z</time>
      </trkpt>
      <trkpt lat="48.85072" lon="2.28074">
        <ele>29.39999961853</ele>
        <time>2015-11-16T19:59:29Z</time>
      </trkpt>
      <trkpt lat="48.85058" lon="2.28053">
        <ele>29.60000038147</ele>
        <time>2015-11-16T19:59:36Z</time>
      </trkpt>
      <trkpt lat="48.85046" lon="2.28034">
        <ele>29.60000038147</ele>
        <time>2015-11-16T19:59:43Z</time>
      </trkpt>
      <trkpt lat="48.85036" lon="2.28017">
        <ele>30</ele>
        <time>2015-11-16T19:59:53Z</time>
      </trkpt>
      <trkpt lat="48.8504" lon="2.28015">
        <ele>30.39999961853</ele>
        <time>2015-11-16T20:01:37Z</time>
      </trkpt>
      <trkpt lat="48.85048" lon="2.27997">
        <ele>29.39999961853</ele>
        <time>2015-11-16T20:02:17Z</time>
      </trkpt>
      <trkpt lat="48.85062" lon="2.27975">
        <ele>30.39999961853</ele>
        <time>2015-11-16T20:02:23Z</time>
      </trkpt>
      <trkpt lat="48.85078" lon="2.27952">
        <ele>31.200000762939</ele>
        <time>2015-11-16T20:02:29Z</time>
      </trkpt>
      <trkpt lat="48.85091" lon="2.2793">
        <ele>31.799999237061</ele>
        <time>2015-11-16T20:02:35Z</time>
      </trkpt>
      <trkpt lat="48.85105" lon="2.27909">
        <ele>32.20000076294</ele>
        <time>2015-11-16T20:02:42Z</time>
      </trkpt>
      <trkpt lat="48.85118" lon="2.27885">
        <ele>34.20000076294</ele>
        <time>2015-11-16T20:02:49Z</time>
      </trkpt>
      <trkpt lat="48.85132" lon="2.27863">
        <ele>36.20000076294</ele>
        <time>2015-11-16T20:02:56Z</time>
      </trkpt>
      <trkpt lat="48.85134" lon="2.2786">
        <ele>36.599998474121</ele>
        <time>2015-11-16T20:02:58Z</time>
      </trkpt>
      <trkpt lat="48.85144" lon="2.27852">
        <ele>36.79999923706</ele>
        <time>2015-11-16T20:03:48Z</time>
      </trkpt>
      <trkpt lat="48.85153" lon="2.27829">
        <ele>37</ele>
        <time>2015-11-16T20:03:55Z</time>
      </trkpt>
      <trkpt lat="48.85163" lon="2.27805">
        <ele>37</ele>
        <time>2015-11-16T20:04:01Z</time>
      </trkpt>
      <trkpt lat="48.85175" lon="2.27779">
        <ele>38.400001525879</ele>
        <time>2015-11-16T20:04:07Z</time>
      </trkpt>
      <trkpt lat="48.85185" lon="2.27755">
        <ele>39.599998474121</ele>
        <time>2015-11-16T20:04:12Z</time>
      </trkpt>
      <trkpt lat="48.85198" lon="2.27728">
        <ele>41.20000076294</ele>
        <time>2015-11-16T20:04:17Z</time>
      </trkpt>
      <trkpt lat="48.8521" lon="2.27702">
        <ele>43.20000076294</ele>
        <time>2015-11-16T20:04:22Z</time>
      </trkpt>
      <trkpt lat="48.85221" lon="2.27678">
        <ele>43.20000076294</ele>
        <time>2015-11-16T20:04:27Z</time>
      </trkpt>
      <trkpt lat="48.85232" lon="2.27651">
        <ele>41.599998474121</ele>
        <time>2015-11-16T20:04:32Z</time>
      </trkpt>
      <trkpt lat="48.85246" lon="2.2763">
        <ele>40.599998474121</ele>
        <time>2015-11-16T20:04:36Z</time>
      </trkpt>
      <trkpt lat="48.85259" lon="2.27604">
        <ele>39.79999923706</ele>
        <time>2015-11-16T20:04:41Z</time>
      </trkpt>
      <trkpt lat="48.85265" lon="2.27597">
        <ele>39.400001525879</ele>
        <time>2015-11-16T20:04:43Z</time>
      </trkpt>
      <trkpt lat="48.85275" lon="2.27587">
        <ele>39.20000076294</ele>
        <time>2015-11-16T20:04:47Z</time>
      </trkpt>
      <trkpt lat="48.85278" lon="2.27583">
        <ele>39.400001525879</ele>
        <time>2015-11-16T20:04:49Z</time>
      </trkpt>
      <trkpt lat="48.85289" lon="2.27577">
        <ele>40</ele>
        <time>2015-11-16T20:04:55Z</time>
      </trkpt>
      <trkpt lat="48.85309" lon="2.2757">
        <ele>41.20000076294</ele>
        <time>2015-11-16T20:05:04Z</time>
      </trkpt>
      <trkpt lat="48.8533" lon="2.27566">
        <ele>42.400001525879</ele>
        <time>2015-11-16T20:05:10Z</time>
      </trkpt>
      <trkpt lat="48.8535" lon="2.27564">
        <ele>43.400001525879</ele>
        <time>2015-11-16T20:05:15Z</time>
      </trkpt>
      <trkpt lat="48.85371" lon="2.2756">
        <ele>44.599998474121</ele>
        <time>2015-11-16T20:05:20Z</time>
      </trkpt>
      <trkpt lat="48.85392" lon="2.27556">
        <ele>46</ele>
        <time>2015-11-16T20:05:25Z</time>
      </trkpt>
      <trkpt lat="48.85408" lon="2.27562">
        <ele>47.400001525879</ele>
        <time>2015-11-16T20:05:37Z</time>
      </trkpt>
      <trkpt lat="48.85401" lon="2.27591">
        <ele>48</ele>
        <time>2015-11-16T20:05:43Z</time>
      </trkpt>
      <trkpt lat="48.85396" lon="2.27618">
        <ele>49.20000076294</ele>
        <time>2015-11-16T20:05:48Z</time>
      </trkpt>
      <trkpt lat="48.8539" lon="2.27645">
        <ele>48.599998474121</ele>
        <time>2015-11-16T20:05:53Z</time>
      </trkpt>
      <trkpt lat="48.85384" lon="2.27676">
        <ele>48</ele>
        <time>2015-11-16T20:05:58Z</time>
      </trkpt>
      <trkpt lat="48.85378" lon="2.27705">
        <ele>47.79999923706</ele>
        <time>2015-11-16T20:06:03Z</time>
      </trkpt>
      <trkpt lat="48.85366" lon="2.27726">
        <ele>46.79999923706</ele>
        <time>2015-11-16T20:06:08Z</time>
      </trkpt>
      <trkpt lat="48.85368" lon="2.27737">
        <ele>47.400001525879</ele>
        <time>2015-11-16T20:06:11Z</time>
      </trkpt>
      <trkpt lat="48.85387" lon="2.27756">
        <ele>49.79999923706</ele>
        <time>2015-11-16T20:06:27Z</time>
      </trkpt>
      <trkpt lat="48.854" lon="2.27782">
        <ele>51</ele>
        <time>2015-11-16T20:06:33Z</time>
      </trkpt>
      <trkpt lat="48.85409" lon="2.27793">
        <ele>51.79999923706</ele>
        <time>2015-11-16T20:06:36Z</time>
      </trkpt>
      <trkpt lat="48.85418" lon="2.27802">
        <ele>52.79999923706</ele>
        <time>2015-11-16T20:06:40Z</time>
      </trkpt>
      <trkpt lat="48.85431" lon="2.27821">
        <ele>54.20000076294</ele>
        <time>2015-11-16T20:06:46Z</time>
      </trkpt>
      <trkpt lat="48.85444" lon="2.2784">
        <ele>55.20000076294</ele>
        <time>2015-11-16T20:06:56Z</time>
      </trkpt>
      <trkpt lat="48.85448" lon="2.27858">
        <ele>55</ele>
        <time>2015-11-16T20:07:05Z</time>
      </trkpt>
      <trkpt lat="48.85447" lon="2.27862">
        <ele>54.599998474121</ele>
        <time>2015-11-16T20:07:09Z</time>
      </trkpt>
      <trkpt lat="48.85451" lon="2.27878">
        <ele>54.400001525879</ele>
        <time>2015-11-16T20:07:15Z</time>
      </trkpt>
      <trkpt lat="48.85459" lon="2.27892">
        <ele>55</ele>
        <time>2015-11-16T20:07:21Z</time>
      </trkpt>
      <trkpt lat="48.85469" lon="2.27906">
        <ele>55.79999923706</ele>
        <time>2015-11-16T20:07:27Z</time>
      </trkpt>
      <trkpt lat="48.85474" lon="2.27927">
        <ele>55.79999923706</ele>
        <time>2015-11-16T20:07:34Z</time>
      </trkpt>
      <trkpt lat="48.85483" lon="2.27951">
        <ele>56</ele>
        <time>2015-11-16T20:07:40Z</time>
      </trkpt>
      <trkpt lat="48.85494" lon="2.27974">
        <ele>57</ele>
        <time>2015-11-16T20:07:46Z</time>
      </trkpt>
      <trkpt lat="48.85505" lon="2.27996">
        <ele>58.20000076294</ele>
        <time>2015-11-16T20:07:51Z</time>
      </trkpt>
      <trkpt lat="48.85519" lon="2.28018">
        <ele>58.20000076294</ele>
        <time>2015-11-16T20:07:57Z</time>
      </trkpt>
      <trkpt lat="48.8553" lon="2.28043">
        <ele>58</ele>
        <time>2015-11-16T20:08:03Z</time>
      </trkpt>
      <trkpt lat="48.85545" lon="2.28058">
        <ele>58.599998474121</ele>
        <time>2015-11-16T20:08:09Z</time>
      </trkpt>
      <trkpt lat="48.85561" lon="2.28075">
        <ele>59.400001525879</ele>
        <time>2015-11-16T20:08:17Z</time>
      </trkpt>
      <trkpt lat="48.85562" lon="2.28076">
        <ele>59.400001525879</ele>
        <time>2015-11-16T20:08:18Z</time>
      </trkpt>
      <trkpt lat="48.85561" lon="2.28081">
        <ele>59</ele>
        <time>2015-11-16T20:08:23Z</time>
      </trkpt>
      <trkpt lat="48.85571" lon="2.28106">
        <ele>59</ele>
        <time>2015-11-16T20:08:50Z</time>
      </trkpt>
      <trkpt lat="48.85589" lon="2.28118">
        <ele>60.20000076294</ele>
        <time>2015-11-16T20:08:58Z</time>
      </trkpt>
      <trkpt lat="48.85606" lon="2.28134">
        <ele>61.400001525879</ele>
        <time>2015-11-16T20:09:05Z</time>
      </trkpt>
      <trkpt lat="48.85622" lon="2.28147">
        <ele>62.79999923706</ele>
        <time>2015-11-16T20:09:11Z</time>
      </trkpt>
      <trkpt lat="48.85635" lon="2.28167">
        <ele>63.400001525879</ele>
        <time>2015-11-16T20:09:17Z</time>
      </trkpt>
      <trkpt lat="48.85651" lon="2.28187">
        <ele>64.599998474121</ele>
        <time>2015-11-16T20:09:24Z</time>
      </trkpt>
      <trkpt lat="48.85663" lon="2.28192">
        <ele>65.800003051758</ele>
        <time>2015-11-16T20:09:28Z</time>
      </trkpt>
      <trkpt lat="48.85674" lon="2.28207">
        <ele>66.599998474121</ele>
        <time>2015-11-16T20:09:33Z</time>
      </trkpt>
      <trkpt lat="48.85685" lon="2.28232">
        <ele>67</ele>
        <time>2015-11-16T20:09:40Z</time>
      </trkpt>
      <trkpt lat="48.85693" lon="2.28247">
        <ele>67.199996948242</ele>
        <time>2015-11-16T20:09:44Z</time>
      </trkpt>
      <trkpt lat="48.85708" lon="2.28264">
        <ele>68.599998474121</ele>
        <time>2015-11-16T20:09:51Z</time>
      </trkpt>
      <trkpt lat="48.85723" lon="2.28282">
        <ele>69.599998474121</ele>
        <time>2015-11-16T20:09:57Z</time>
      </trkpt>
      <trkpt lat="48.85732" lon="2.28308">
        <ele>68.599998474121</ele>
        <time>2015-11-16T20:10:03Z</time>
      </trkpt>
      <trkpt lat="48.85746" lon="2.28327">
        <ele>69.199996948242</ele>
        <time>2015-11-16T20:10:09Z</time>
      </trkpt>
      <trkpt lat="48.85761" lon="2.28344">
        <ele>70</ele>
        <time>2015-11-16T20:10:15Z</time>
      </trkpt>
      <trkpt lat="48.85773" lon="2.2837">
        <ele>68.599998474121</ele>
        <time>2015-11-16T20:10:21Z</time>
      </trkpt>
      <trkpt lat="48.85789" lon="2.28391">
        <ele>66.800003051758</ele>
        <time>2015-11-16T20:10:27Z</time>
      </trkpt>
      <trkpt lat="48.85803" lon="2.2841">
        <ele>64.800003051758</ele>
        <time>2015-11-16T20:10:33Z</time>
      </trkpt>
      <trkpt lat="48.85818" lon="2.28426">
        <ele>64.800003051758</ele>
        <time>2015-11-16T20:10:39Z</time>
      </trkpt>
      <trkpt lat="48.85828" lon="2.28433">
        <ele>65</ele>
        <time>2015-11-16T20:10:45Z</time>
      </trkpt>
      <trkpt lat="48.85837" lon="2.28459">
        <ele>64.400001525879</ele>
        <time>2015-11-16T20:11:02Z</time>
      </trkpt>
      <trkpt lat="48.85849" lon="2.28483">
        <ele>64.199996948242</ele>
        <time>2015-11-16T20:11:12Z</time>
      </trkpt>
      <trkpt lat="48.85859" lon="2.28508">
        <ele>64.400001525879</ele>
        <time>2015-11-16T20:11:18Z</time>
      </trkpt>
      <trkpt lat="48.85868" lon="2.28536">
        <ele>65.199996948242</ele>
        <time>2015-11-16T20:11:24Z</time>
      </trkpt>
      <trkpt lat="48.85877" lon="2.28566">
        <ele>66</ele>
        <time>2015-11-16T20:11:30Z</time>
      </trkpt>
      <trkpt lat="48.85886" lon="2.28594">
        <ele>66</ele>
        <time>2015-11-16T20:11:35Z</time>
      </trkpt>
      <trkpt lat="48.85895" lon="2.28622">
        <ele>64.800003051758</ele>
        <time>2015-11-16T20:11:40Z</time>
      </trkpt>
      <trkpt lat="48.85903" lon="2.28649">
        <ele>63.599998474121</ele>
        <time>2015-11-16T20:11:45Z</time>
      </trkpt>
      <trkpt lat="48.8591" lon="2.28676">
        <ele>61.79999923706</ele>
        <time>2015-11-16T20:11:51Z</time>
      </trkpt>
      <trkpt lat="48.85918" lon="2.287">
        <ele>59.79999923706</ele>
        <time>2015-11-16T20:11:59Z</time>
      </trkpt>
      <trkpt lat="48.85935" lon="2.28717">
        <ele>59</ele>
        <time>2015-11-16T20:12:07Z</time>
      </trkpt>
      <trkpt lat="48.85943" lon="2.28746">
        <ele>56.20000076294</ele>
        <time>2015-11-16T20:12:15Z</time>
      </trkpt>
      <trkpt lat="48.85949" lon="2.28767">
        <ele>54.79999923706</ele>
        <time>2015-11-16T20:12:26Z</time>
      </trkpt>
      <trkpt lat="48.85961" lon="2.28788">
        <ele>53.79999923706</ele>
        <time>2015-11-16T20:12:36Z</time>
      </trkpt>
      <trkpt lat="48.85965" lon="2.28795">
        <ele>53.400001525879</ele>
        <time>2015-11-16T20:12:39Z</time>
      </trkpt>
      <trkpt lat="48.85973" lon="2.28823">
        <ele>51.79999923706</ele>
        <time>2015-11-16T20:12:48Z</time>
      </trkpt>
      <trkpt lat="48.85976" lon="2.28842">
        <ele>50.400001525879</ele>
        <time>2015-11-16T20:12:55Z</time>
      </trkpt>
      <trkpt lat="48.85982" lon="2.2887">
        <ele>48.20000076294</ele>
        <time>2015-11-16T20:13:05Z</time>
      </trkpt>
      <trkpt lat="48.85986" lon="2.28893">
        <ele>46</ele>
        <time>2015-11-16T20:13:14Z</time>
      </trkpt>
      <trkpt lat="48.85992" lon="2.28919">
        <ele>43.599998474121</ele>
        <time>2015-11-16T20:13:25Z</time>
      </trkpt>
      <trkpt lat="48.85996" lon="2.28947">
        <ele>41.20000076294</ele>
        <time>2015-11-16T20:13:38Z</time>
      </trkpt>
      <trkpt lat="48.86" lon="2.28974">
        <ele>38.79999923706</ele>
        <time>2015-11-16T20:13:51Z</time>
      </trkpt>
      <trkpt lat="48.86006" lon="2.29">
        <ele>36.79999923706</ele>
        <time>2015-11-16T20:14:03Z</time>
      </trkpt>
      <trkpt lat="48.86008" lon="2.29019">
        <ele>35.79999923706</ele>
        <time>2015-11-16T20:14:10Z</time>
      </trkpt>
      <trkpt lat="48.86002" lon="2.29042">
        <ele>34</ele>
        <time>2015-11-16T20:14:31Z</time>
      </trkpt>
      <trkpt lat="48.85998" lon="2.29048">
        <ele>33.400001525879</ele>
        <time>2015-11-16T20:14:35Z</time>
      </trkpt>
      <trkpt lat="48.85993" lon="2.29071">
        <ele>32.20000076294</ele>
        <time>2015-11-16T20:14:46Z</time>
      </trkpt>
      <trkpt lat="48.85993" lon="2.29074">
        <ele>32.20000076294</ele>
        <time>2015-11-16T20:14:48Z</time>
      </trkpt>
      <trkpt lat="48.86006" lon="2.29093">
        <ele>31.60000038147</ele>
        <time>2015-11-16T20:15:07Z</time>
      </trkpt>
      <trkpt lat="48.8602" lon="2.2911">
        <ele>31.200000762939</ele>
        <time>2015-11-16T20:15:22Z</time>
      </trkpt>
      <trkpt lat="48.86018" lon="2.29118">
        <ele>30.60000038147</ele>
        <time>2015-11-16T20:15:28Z</time>
      </trkpt>
      <trkpt lat="48.86007" lon="2.29135">
        <ele>29.200000762939</ele>
        <time>2015-11-16T20:15:52Z</time>
      </trkpt>
      <trkpt lat="48.85993" lon="2.29155">
        <ele>28.39999961853</ele>
        <time>2015-11-16T20:16:00Z</time>
      </trkpt>
      <trkpt lat="48.85979" lon="2.29177">
        <ele>28</ele>
        <time>2015-11-16T20:16:07Z</time>
      </trkpt>
      <trkpt lat="48.85965" lon="2.292">
        <ele>28.200000762939</ele>
        <time>2015-11-16T20:16:14Z</time>
      </trkpt>
      <trkpt lat="48.8595" lon="2.2922">
        <ele>30.200000762939</ele>
        <time>2015-11-16T20:16:21Z</time>
      </trkpt>
      <trkpt lat="48.85938" lon="2.29244">
        <ele>32</ele>
        <time>2015-11-16T20:16:29Z</time>
      </trkpt>
      <trkpt lat="48.85924" lon="2.29265">
        <ele>34.599998474121</ele>
        <time>2015-11-16T20:16:38Z</time>
      </trkpt>
      <trkpt lat="48.85922" lon="2.29268">
        <ele>35.20000076294</ele>
        <time>2015-11-16T20:16:40Z</time>
      </trkpt>
      <trkpt lat="48.85915" lon="2.29274">
        <ele>36</ele>
        <time>2015-11-16T20:16:44Z</time>
      </trkpt>
      <trkpt lat="48.85899" lon="2.29287">
        <ele>38.400001525879</ele>
        <time>2015-11-16T20:16:58Z</time>
      </trkpt>
      <trkpt lat="48.859" lon="2.29293">
        <ele>38.599998474121</ele>
        <time>2015-11-16T20:17:02Z</time>
      </trkpt>
      <trkpt lat="48.85902" lon="2.293">
        <ele>38.599998474121</ele>
        <time>2015-11-16T20:17:06Z</time>
      </trkpt>
      <trkpt lat="48.85909" lon="2.29312">
        <ele>38.79999923706</ele>
        <time>2015-11-16T20:17:12Z</time>
      </trkpt>
      <trkpt lat="48.85917" lon="2.29325">
        <ele>39</ele>
        <time>2015-11-16T20:17:19Z</time>
      </trkpt>
      <trkpt lat="48.85921" lon="2.29333">
        <ele>39.20000076294</ele>
        <time>2015-11-16T20:17:24Z</time>
      </trkpt>
      <trkpt lat="48.85918" lon="2.2934">
        <ele>39.400001525879</ele>
        <time>2015-11-16T20:17:28Z</time>
      </trkpt>
      <trkpt lat="48.85923" lon="2.29366">
        <ele>40.400001525879</ele>
        <time>2015-11-16T20:17:42Z</time>
      </trkpt>
      <trkpt lat="48.85932" lon="2.29395">
        <ele>41.400001525879</ele>
        <time>2015-11-16T20:17:50Z</time>
      </trkpt>
      <trkpt lat="48.85945" lon="2.29416">
        <ele>41.599998474121</ele>
        <time>2015-11-16T20:17:55Z</time>
      </trkpt>
      <trkpt lat="48.8596" lon="2.29439">
        <ele>40.79999923706</ele>
        <time>2015-11-16T20:18:00Z</time>
      </trkpt>
      <trkpt lat="48.85973" lon="2.29458">
        <ele>40</ele>
        <time>2015-11-16T20:18:04Z</time>
      </trkpt>
      <trkpt lat="48.85987" lon="2.29479">
        <ele>39</ele>
        <time>2015-11-16T20:18:08Z</time>
      </trkpt>
      <trkpt lat="48.86003" lon="2.29498">
        <ele>38.20000076294</ele>
        <time>2015-11-16T20:18:12Z</time>
      </trkpt>
      <trkpt lat="48.86017" lon="2.29517">
        <ele>39</ele>
        <time>2015-11-16T20:18:16Z</time>
      </trkpt>
      <trkpt lat="48.86033" lon="2.29537">
        <ele>38.79999923706</ele>
        <time>2015-11-16T20:18:21Z</time>
      </trkpt>
      <trkpt lat="48.86047" lon="2.29558">
        <ele>38.20000076294</ele>
        <time>2015-11-16T20:18:26Z</time>
      </trkpt>
      <trkpt lat="48.86061" lon="2.29578">
        <ele>37.599998474121</ele>
        <time>2015-11-16T20:18:32Z</time>
      </trkpt>
      <trkpt lat="48.86074" lon="2.296">
        <ele>36.400001525879</ele>
        <time>2015-11-16T20:18:37Z</time>
      </trkpt>
      <trkpt lat="48.86086" lon="2.29621">
        <ele>35.20000076294</ele>
        <time>2015-11-16T20:18:41Z</time>
      </trkpt>
      <trkpt lat="48.86099" lon="2.29643">
        <ele>33.79999923706</ele>
        <time>2015-11-16T20:18:45Z</time>
      </trkpt>
      <trkpt lat="48.86112" lon="2.29671">
        <ele>33</ele>
        <time>2015-11-16T20:18:50Z</time>
      </trkpt>
      <trkpt lat="48.86122" lon="2.29694">
        <ele>33</ele>
        <time>2015-11-16T20:18:54Z</time>
      </trkpt>
      <trkpt lat="48.86132" lon="2.29718">
        <ele>33</ele>
        <time>2015-11-16T20:18:58Z</time>
      </trkpt>
      <trkpt lat="48.86141" lon="2.29748">
        <ele>33</ele>
        <time>2015-11-16T20:19:03Z</time>
      </trkpt>
      <trkpt lat="48.8615" lon="2.29775">
        <ele>32</ele>
        <time>2015-11-16T20:19:08Z</time>
      </trkpt>
      <trkpt lat="48.86159" lon="2.29804">
        <ele>31.200000762939</ele>
        <time>2015-11-16T20:19:13Z</time>
      </trkpt>
      <trkpt lat="48.86165" lon="2.29822">
        <ele>30.799999237061</ele>
        <time>2015-11-16T20:19:16Z</time>
      </trkpt>
      <trkpt lat="48.86172" lon="2.29847">
        <ele>31.200000762939</ele>
        <time>2015-11-16T20:19:20Z</time>
      </trkpt>
      <trkpt lat="48.86181" lon="2.29878">
        <ele>32</ele>
        <time>2015-11-16T20:19:25Z</time>
      </trkpt>
      <trkpt lat="48.86187" lon="2.29908">
        <ele>32.79999923706</ele>
        <time>2015-11-16T20:19:30Z</time>
      </trkpt>
      <trkpt lat="48.86195" lon="2.29938">
        <ele>34.20000076294</ele>
        <time>2015-11-16T20:19:35Z</time>
      </trkpt>
      <trkpt lat="48.86198" lon="2.29951">
        <ele>34.599998474121</ele>
        <time>2015-11-16T20:19:37Z</time>
      </trkpt>
      <trkpt lat="48.86203" lon="2.29977">
        <ele>36</ele>
        <time>2015-11-16T20:19:41Z</time>
      </trkpt>
      <trkpt lat="48.86207" lon="2.30006">
        <ele>37.20000076294</ele>
        <time>2015-11-16T20:19:45Z</time>
      </trkpt>
      <trkpt lat="48.86212" lon="2.30034">
        <ele>38</ele>
        <time>2015-11-16T20:19:49Z</time>
      </trkpt>
      <trkpt lat="48.86215" lon="2.30063">
        <ele>38.599998474121</ele>
        <time>2015-11-16T20:19:53Z</time>
      </trkpt>
      <trkpt lat="48.86215" lon="2.30076">
        <ele>39</ele>
        <time>2015-11-16T20:19:55Z</time>
      </trkpt>
      <trkpt lat="48.86217" lon="2.30101">
        <ele>37.79999923706</ele>
        <time>2015-11-16T20:19:59Z</time>
      </trkpt>
      <trkpt lat="48.86219" lon="2.30122">
        <ele>37.599998474121</ele>
        <time>2015-11-16T20:20:03Z</time>
      </trkpt>
      <trkpt lat="48.86217" lon="2.30142">
        <ele>38.20000076294</ele>
        <time>2015-11-16T20:20:08Z</time>
      </trkpt>
      <trkpt lat="48.86216" lon="2.30162">
        <ele>38.79999923706</ele>
        <time>2015-11-16T20:20:13Z</time>
      </trkpt>
      <trkpt lat="48.86217" lon="2.30176">
        <ele>39.400001525879</ele>
        <time>2015-11-16T20:20:17Z</time>
      </trkpt>
      <trkpt lat="48.86217" lon="2.30205">
        <ele>41</ele>
        <time>2015-11-16T20:20:27Z</time>
      </trkpt>
      <trkpt lat="48.8622" lon="2.30235">
        <ele>42.20000076294</ele>
        <time>2015-11-16T20:20:33Z</time>
      </trkpt>
      <trkpt lat="48.86219" lon="2.30262">
        <ele>43.599998474121</ele>
        <time>2015-11-16T20:20:38Z</time>
      </trkpt>
      <trkpt lat="48.86217" lon="2.30292">
        <ele>44</ele>
        <time>2015-11-16T20:20:44Z</time>
      </trkpt>
      <trkpt lat="48.86218" lon="2.3032">
        <ele>43.20000076294</ele>
        <time>2015-11-16T20:20:49Z</time>
      </trkpt>
      <trkpt lat="48.86221" lon="2.30349">
        <ele>43.599998474121</ele>
        <time>2015-11-16T20:20:54Z</time>
      </trkpt>
      <trkpt lat="48.86225" lon="2.30377">
        <ele>45</ele>
        <time>2015-11-16T20:20:59Z</time>
      </trkpt>
      <trkpt lat="48.86225" lon="2.30407">
        <ele>47.20000076294</ele>
        <time>2015-11-16T20:21:04Z</time>
      </trkpt>
      <trkpt lat="48.86227" lon="2.30436">
        <ele>45.599998474121</ele>
        <time>2015-11-16T20:21:09Z</time>
      </trkpt>
      <trkpt lat="48.86232" lon="2.30467">
        <ele>43.599998474121</ele>
        <time>2015-11-16T20:21:14Z</time>
      </trkpt>
      <trkpt lat="48.86232" lon="2.30495">
        <ele>43.79999923706</ele>
        <time>2015-11-16T20:21:19Z</time>
      </trkpt>
      <trkpt lat="48.86233" lon="2.30526">
        <ele>43</ele>
        <time>2015-11-16T20:21:26Z</time>
      </trkpt>
      <trkpt lat="48.86235" lon="2.30555">
        <ele>41.79999923706</ele>
        <time>2015-11-16T20:21:31Z</time>
      </trkpt>
      <trkpt lat="48.86235" lon="2.30583">
        <ele>40.599998474121</ele>
        <time>2015-11-16T20:21:36Z</time>
      </trkpt>
      <trkpt lat="48.86236" lon="2.30612">
        <ele>40.400001525879</ele>
        <time>2015-11-16T20:21:42Z</time>
      </trkpt>
      <trkpt lat="48.86235" lon="2.30641">
        <ele>40.20000076294</ele>
        <time>2015-11-16T20:21:48Z</time>
      </trkpt>
      <trkpt lat="48.86235" lon="2.30668">
        <ele>39.79999923706</ele>
        <time>2015-11-16T20:21:53Z</time>
      </trkpt>
      <trkpt lat="48.86235" lon="2.30699">
        <ele>40</ele>
        <time>2015-11-16T20:21:58Z</time>
      </trkpt>
      <trkpt lat="48.86234" lon="2.30728">
        <ele>40</ele>
        <time>2015-11-16T20:22:03Z</time>
      </trkpt>
      <trkpt lat="48.86235" lon="2.30759">
        <ele>40.400001525879</ele>
        <time>2015-11-16T20:22:09Z</time>
      </trkpt>
      <trkpt lat="48.86232" lon="2.3079">
        <ele>42.400001525879</ele>
        <time>2015-11-16T20:22:14Z</time>
      </trkpt>
      <trkpt lat="48.86232" lon="2.3082">
        <ele>42.20000076294</ele>
        <time>2015-11-16T20:22:19Z</time>
      </trkpt>
      <trkpt lat="48.86232" lon="2.30855">
        <ele>43.20000076294</ele>
        <time>2015-11-16T20:22:24Z</time>
      </trkpt>
      <trkpt lat="48.86234" lon="2.30889">
        <ele>44.400001525879</ele>
        <time>2015-11-16T20:22:29Z</time>
      </trkpt>
      <trkpt lat="48.86236" lon="2.30921">
        <ele>45</ele>
        <time>2015-11-16T20:22:34Z</time>
      </trkpt>
      <trkpt lat="48.86238" lon="2.3095">
        <ele>44.20000076294</ele>
        <time>2015-11-16T20:22:39Z</time>
      </trkpt>
      <trkpt lat="48.86237" lon="2.3098">
        <ele>43.79999923706</ele>
        <time>2015-11-16T20:22:46Z</time>
      </trkpt>
      <trkpt lat="48.86239" lon="2.31012">
        <ele>42.79999923706</ele>
        <time>2015-11-16T20:22:53Z</time>
      </trkpt>
      <trkpt lat="48.86236" lon="2.31034">
        <ele>41.400001525879</ele>
        <time>2015-11-16T20:23:00Z</time>
      </trkpt>
      <trkpt lat="48.8624" lon="2.31064">
        <ele>39.599998474121</ele>
        <time>2015-11-16T20:23:13Z</time>
      </trkpt>
      <trkpt lat="48.86241" lon="2.31092">
        <ele>38</ele>
        <time>2015-11-16T20:23:18Z</time>
      </trkpt>
      <trkpt lat="48.86242" lon="2.31121">
        <ele>36.20000076294</ele>
        <time>2015-11-16T20:23:23Z</time>
      </trkpt>
      <trkpt lat="48.86244" lon="2.31149">
        <ele>35</ele>
        <time>2015-11-16T20:23:29Z</time>
      </trkpt>
      <trkpt lat="48.86261" lon="2.31163">
        <ele>34.20000076294</ele>
        <time>2015-11-16T20:23:37Z</time>
      </trkpt>
      <trkpt lat="48.86268" lon="2.31174">
        <ele>34</ele>
        <time>2015-11-16T20:23:41Z</time>
      </trkpt>
      <trkpt lat="48.86269" lon="2.31205">
        <ele>33.599998474121</ele>
        <time>2015-11-16T20:23:47Z</time>
      </trkpt>
      <trkpt lat="48.8627" lon="2.31238">
        <ele>33.20000076294</ele>
        <time>2015-11-16T20:23:53Z</time>
      </trkpt>
      <trkpt lat="48.8627" lon="2.31269">
        <ele>33</ele>
        <time>2015-11-16T20:23:59Z</time>
      </trkpt>
      <trkpt lat="48.86269" lon="2.313">
        <ele>33</ele>
        <time>2015-11-16T20:24:05Z</time>
      </trkpt>
      <trkpt lat="48.8627" lon="2.31324">
        <ele>33</ele>
        <time>2015-11-16T20:24:15Z</time>
      </trkpt>
      <trkpt lat="48.86252" lon="2.31329">
        <ele>32.599998474121</ele>
        <time>2015-11-16T20:24:27Z</time>
      </trkpt>
      <trkpt lat="48.86233" lon="2.31327">
        <ele>32.20000076294</ele>
        <time>2015-11-16T20:24:32Z</time>
      </trkpt>
      <trkpt lat="48.86212" lon="2.31324">
        <ele>31.60000038147</ele>
        <time>2015-11-16T20:24:37Z</time>
      </trkpt>
      <trkpt lat="48.8619" lon="2.31322">
        <ele>31.200000762939</ele>
        <time>2015-11-16T20:24:42Z</time>
      </trkpt>
      <trkpt lat="48.86169" lon="2.31319">
        <ele>32.400001525879</ele>
        <time>2015-11-16T20:24:47Z</time>
      </trkpt>
      <trkpt lat="48.86149" lon="2.31315">
        <ele>34.400001525879</ele>
        <time>2015-11-16T20:24:52Z</time>
      </trkpt>
      <trkpt lat="48.86129" lon="2.31313">
        <ele>36.400001525879</ele>
        <time>2015-11-16T20:24:57Z</time>
      </trkpt>
      <trkpt lat="48.86112" lon="2.3132">
        <ele>38.599998474121</ele>
        <time>2015-11-16T20:25:02Z</time>
      </trkpt>
      <trkpt lat="48.86102" lon="2.31345">
        <ele>38.400001525879</ele>
        <time>2015-11-16T20:25:07Z</time>
      </trkpt>
      <trkpt lat="48.86097" lon="2.31377">
        <ele>35.20000076294</ele>
        <time>2015-11-16T20:25:12Z</time>
      </trkpt>
      <trkpt lat="48.86094" lon="2.31406">
        <ele>33.20000076294</ele>
        <time>2015-11-16T20:25:16Z</time>
      </trkpt>
      <trkpt lat="48.86092" lon="2.31435">
        <ele>34.400001525879</ele>
        <time>2015-11-16T20:25:20Z</time>
      </trkpt>
      <trkpt lat="48.8609" lon="2.31464">
        <ele>36</ele>
        <time>2015-11-16T20:25:25Z</time>
      </trkpt>
      <trkpt lat="48.86089" lon="2.31493">
        <ele>38.79999923706</ele>
        <time>2015-11-16T20:25:31Z</time>
      </trkpt>
      <trkpt lat="48.86088" lon="2.31506">
        <ele>39.400001525879</ele>
        <time>2015-11-16T20:25:34Z</time>
      </trkpt>
      <trkpt lat="48.86086" lon="2.31536">
        <ele>40.20000076294</ele>
        <time>2015-11-16T20:25:40Z</time>
      </trkpt>
      <trkpt lat="48.86086" lon="2.31566">
        <ele>41</ele>
        <time>2015-11-16T20:25:45Z</time>
      </trkpt>
      <trkpt lat="48.86085" lon="2.31595">
        <ele>41.79999923706</ele>
        <time>2015-11-16T20:25:50Z</time>
      </trkpt>
      <trkpt lat="48.86084" lon="2.31625">
        <ele>41.79999923706</ele>
        <time>2015-11-16T20:25:55Z</time>
      </trkpt>
      <trkpt lat="48.86084" lon="2.31659">
        <ele>41.400001525879</ele>
        <time>2015-11-16T20:26:00Z</time>
      </trkpt>
      <trkpt lat="48.86081" lon="2.3169">
        <ele>41</ele>
        <time>2015-11-16T20:26:07Z</time>
      </trkpt>
      <trkpt lat="48.86083" lon="2.31718">
        <ele>40.599998474121</ele>
        <time>2015-11-16T20:26:14Z</time>
      </trkpt>
      <trkpt lat="48.86084" lon="2.31747">
        <ele>40.20000076294</ele>
        <time>2015-11-16T20:26:21Z</time>
      </trkpt>
      <trkpt lat="48.86087" lon="2.31774">
        <ele>39.79999923706</ele>
        <time>2015-11-16T20:26:28Z</time>
      </trkpt>
      <trkpt lat="48.86081" lon="2.31802">
        <ele>39.599998474121</ele>
        <time>2015-11-16T20:26:37Z</time>
      </trkpt>
      <trkpt lat="48.86075" lon="2.31831">
        <ele>40.400001525879</ele>
        <time>2015-11-16T20:26:45Z</time>
      </trkpt>
      <trkpt lat="48.86075" lon="2.31859">
        <ele>41.20000076294</ele>
        <time>2015-11-16T20:26:52Z</time>
      </trkpt>
      <trkpt lat="48.86077" lon="2.31883">
        <ele>41.599998474121</ele>
        <time>2015-11-16T20:27:00Z</time>
      </trkpt>
      <trkpt lat="48.86074" lon="2.31901">
        <ele>40.79999923706</ele>
        <time>2015-11-16T20:27:04Z</time>
      </trkpt>
      <trkpt lat="48.8607" lon="2.31928">
        <ele>40.400001525879</ele>
        <time>2015-11-16T20:27:09Z</time>
      </trkpt>
      <trkpt lat="48.86064" lon="2.31958">
        <ele>40.599998474121</ele>
        <time>2015-11-16T20:27:14Z</time>
      </trkpt>
      <trkpt lat="48.86058" lon="2.31984">
        <ele>40.599998474121</ele>
        <time>2015-11-16T20:27:18Z</time>
      </trkpt>
      <trkpt lat="48.8605" lon="2.32014">
        <ele>40.79999923706</ele>
        <time>2015-11-16T20:27:23Z</time>
      </trkpt>
      <trkpt lat="48.86042" lon="2.32042">
        <ele>41</ele>
        <time>2015-11-16T20:27:28Z</time>
      </trkpt>
      <trkpt lat="48.86031" lon="2.32071">
        <ele>41</ele>
        <time>2015-11-16T20:27:33Z</time>
      </trkpt>
      <trkpt lat="48.86019" lon="2.32099">
        <ele>40.599998474121</ele>
        <time>2015-11-16T20:27:38Z</time>
      </trkpt>
      <trkpt lat="48.86011" lon="2.3213">
        <ele>39.79999923706</ele>
        <time>2015-11-16T20:27:43Z</time>
      </trkpt>
      <trkpt lat="48.86001" lon="2.32159">
        <ele>38.400001525879</ele>
        <time>2015-11-16T20:27:48Z</time>
      </trkpt>
      <trkpt lat="48.85991" lon="2.32184">
        <ele>38.400001525879</ele>
        <time>2015-11-16T20:27:54Z</time>
      </trkpt>
      <trkpt lat="48.85975" lon="2.32205">
        <ele>38.599998474121</ele>
        <time>2015-11-16T20:28:00Z</time>
      </trkpt>
      <trkpt lat="48.85961" lon="2.32226">
        <ele>40.599998474121</ele>
        <time>2015-11-16T20:28:07Z</time>
      </trkpt>
      <trkpt lat="48.85949" lon="2.3225">
        <ele>42.79999923706</ele>
        <time>2015-11-16T20:28:13Z</time>
      </trkpt>
      <trkpt lat="48.85924" lon="2.32255">
        <ele>43.599998474121</ele>
        <time>2015-11-16T20:28:16Z</time>
      </trkpt>
      <trkpt lat="48.85906" lon="2.32261">
        <ele>44.20000076294</ele>
        <time>2015-11-16T20:28:19Z</time>
      </trkpt>
      <trkpt lat="48.85886" lon="2.32279">
        <ele>45</ele>
        <time>2015-11-16T20:28:24Z</time>
      </trkpt>
      <trkpt lat="48.85869" lon="2.32299">
        <ele>45</ele>
        <time>2015-11-16T20:28:29Z</time>
      </trkpt>
      <trkpt lat="48.85855" lon="2.32313">
        <ele>45</ele>
        <time>2015-11-16T20:28:33Z</time>
      </trkpt>
      <trkpt lat="48.85838" lon="2.32332">
        <ele>44</ele>
        <time>2015-11-16T20:28:38Z</time>
      </trkpt>
      <trkpt lat="48.8583" lon="2.32338">
        <ele>43.599998474121</ele>
        <time>2015-11-16T20:28:40Z</time>
      </trkpt>
      <trkpt lat="48.8581" lon="2.3235">
        <ele>42.400001525879</ele>
        <time>2015-11-16T20:28:44Z</time>
      </trkpt>
      <trkpt lat="48.85792" lon="2.32361">
        <ele>41.400001525879</ele>
        <time>2015-11-16T20:28:48Z</time>
      </trkpt>
      <trkpt lat="48.85776" lon="2.32378">
        <ele>40.20000076294</ele>
        <time>2015-11-16T20:28:52Z</time>
      </trkpt>
      <trkpt lat="48.85769" lon="2.32386">
        <ele>40</ele>
        <time>2015-11-16T20:28:54Z</time>
      </trkpt>
      <trkpt lat="48.85755" lon="2.32401">
        <ele>40.20000076294</ele>
        <time>2015-11-16T20:28:58Z</time>
      </trkpt>
      <trkpt lat="48.85736" lon="2.32416">
        <ele>41.79999923706</ele>
        <time>2015-11-16T20:29:03Z</time>
      </trkpt>
      <trkpt lat="48.85733" lon="2.3242">
        <ele>42</ele>
        <time>2015-11-16T20:29:04Z</time>
      </trkpt>
      <trkpt lat="48.85714" lon="2.32437">
        <ele>42.79999923706</ele>
        <time>2015-11-16T20:29:09Z</time>
      </trkpt>
      <trkpt lat="48.85696" lon="2.32456">
        <ele>44</ele>
        <time>2015-11-16T20:29:15Z</time>
      </trkpt>
      <trkpt lat="48.85682" lon="2.32476">
        <ele>45</ele>
        <time>2015-11-16T20:29:20Z</time>
      </trkpt>
      <trkpt lat="48.85669" lon="2.32497">
        <ele>45</ele>
        <time>2015-11-16T20:29:25Z</time>
      </trkpt>
      <trkpt lat="48.85663" lon="2.32506">
        <ele>44.79999923706</ele>
        <time>2015-11-16T20:29:27Z</time>
      </trkpt>
      <trkpt lat="48.85649" lon="2.32527">
        <ele>44.20000076294</ele>
        <time>2015-11-16T20:29:32Z</time>
      </trkpt>
      <trkpt lat="48.85643" lon="2.3254">
        <ele>44.20000076294</ele>
        <time>2015-11-16T20:29:35Z</time>
      </trkpt>
      <trkpt lat="48.85636" lon="2.32553">
        <ele>44.20000076294</ele>
        <time>2015-11-16T20:29:39Z</time>
      </trkpt>
      <trkpt lat="48.8562" lon="2.32569">
        <ele>44.599998474121</ele>
        <time>2015-11-16T20:29:46Z</time>
      </trkpt>
      <trkpt lat="48.85614" lon="2.32576">
        <ele>44.79999923706</ele>
        <time>2015-11-16T20:29:50Z</time>
      </trkpt>
      <trkpt lat="48.85598" lon="2.32561">
        <ele>45.20000076294</ele>
        <time>2015-11-16T20:30:25Z</time>
      </trkpt>
      <trkpt lat="48.85579" lon="2.32556">
        <ele>45.599998474121</ele>
        <time>2015-11-16T20:30:32Z</time>
      </trkpt>
      <trkpt lat="48.85577" lon="2.32555">
        <ele>45.79999923706</ele>
        <time>2015-11-16T20:30:34Z</time>
      </trkpt>
      <trkpt lat="48.85558" lon="2.32563">
        <ele>46.599998474121</ele>
        <time>2015-11-16T20:31:01Z</time>
      </trkpt>
      <trkpt lat="48.85538" lon="2.3257">
        <ele>47.400001525879</ele>
        <time>2015-11-16T20:31:07Z</time>
      </trkpt>
      <trkpt lat="48.85517" lon="2.32578">
        <ele>48</ele>
        <time>2015-11-16T20:31:13Z</time>
      </trkpt>
      <trkpt lat="48.85496" lon="2.32588">
        <ele>48</ele>
        <time>2015-11-16T20:31:19Z</time>
      </trkpt>
      <trkpt lat="48.85478" lon="2.32599">
        <ele>48.20000076294</ele>
        <time>2015-11-16T20:31:26Z</time>
      </trkpt>
      <trkpt lat="48.85456" lon="2.3261">
        <ele>48.599998474121</ele>
        <time>2015-11-16T20:31:34Z</time>
      </trkpt>
      <trkpt lat="48.85439" lon="2.32622">
        <ele>49</ele>
        <time>2015-11-16T20:31:40Z</time>
      </trkpt>
      <trkpt lat="48.8542" lon="2.32633">
        <ele>49</ele>
        <time>2015-11-16T20:31:46Z</time>
      </trkpt>
      <trkpt lat="48.854" lon="2.32634">
        <ele>48.599998474121</ele>
        <time>2015-11-16T20:31:54Z</time>
      </trkpt>
      <trkpt lat="48.85379" lon="2.32644">
        <ele>48.400001525879</ele>
        <time>2015-11-16T20:32:03Z</time>
      </trkpt>
      <trkpt lat="48.8536" lon="2.3265">
        <ele>48</ele>
        <time>2015-11-16T20:32:08Z</time>
      </trkpt>
      <trkpt lat="48.85342" lon="2.3266">
        <ele>48</ele>
        <time>2015-11-16T20:32:14Z</time>
      </trkpt>
      <trkpt lat="48.85321" lon="2.32668">
        <ele>48</ele>
        <time>2015-11-16T20:32:20Z</time>
      </trkpt>
      <trkpt lat="48.85297" lon="2.32662">
        <ele>48</ele>
        <time>2015-11-16T20:32:21Z</time>
      </trkpt>
      <trkpt lat="48.85276" lon="2.32663">
        <ele>48</ele>
        <time>2015-11-16T20:32:26Z</time>
      </trkpt>
      <trkpt lat="48.85256" lon="2.32664">
        <ele>47.400001525879</ele>
        <time>2015-11-16T20:32:31Z</time>
      </trkpt>
      <trkpt lat="48.85236" lon="2.32663">
        <ele>46.599998474121</ele>
        <time>2015-11-16T20:32:35Z</time>
      </trkpt>
      <trkpt lat="48.85218" lon="2.32671">
        <ele>46</ele>
        <time>2015-11-16T20:32:42Z</time>
      </trkpt>
      <trkpt lat="48.852" lon="2.32677">
        <ele>45.400001525879</ele>
        <time>2015-11-16T20:32:47Z</time>
      </trkpt>
      <trkpt lat="48.85182" lon="2.32678">
        <ele>45.400001525879</ele>
        <time>2015-11-16T20:32:50Z</time>
      </trkpt>
      <trkpt lat="48.85161" lon="2.32685">
        <ele>45.79999923706</ele>
        <time>2015-11-16T20:32:56Z</time>
      </trkpt>
      <trkpt lat="48.85142" lon="2.32688">
        <ele>46.20000076294</ele>
        <time>2015-11-16T20:33:01Z</time>
      </trkpt>
      <trkpt lat="48.85122" lon="2.32691">
        <ele>46.599998474121</ele>
        <time>2015-11-16T20:33:07Z</time>
      </trkpt>
      <trkpt lat="48.85107" lon="2.32693">
        <ele>47</ele>
        <time>2015-11-16T20:33:13Z</time>
      </trkpt>
      <trkpt lat="48.85089" lon="2.32702">
        <ele>47.400001525879</ele>
        <time>2015-11-16T20:33:22Z</time>
      </trkpt>
      <trkpt lat="48.85082" lon="2.3271">
        <ele>47.599998474121</ele>
        <time>2015-11-16T20:33:27Z</time>
      </trkpt>
      <trkpt lat="48.85069" lon="2.32714">
        <ele>47.599998474121</ele>
        <time>2015-11-16T20:33:32Z</time>
      </trkpt>
      <trkpt lat="48.85047" lon="2.32718">
        <ele>46.599998474121</ele>
        <time>2015-11-16T20:33:37Z</time>
      </trkpt>
      <trkpt lat="48.85028" lon="2.32722">
        <ele>45.599998474121</ele>
        <time>2015-11-16T20:33:42Z</time>
      </trkpt>
      <trkpt lat="48.85008" lon="2.32732">
        <ele>46.20000076294</ele>
        <time>2015-11-16T20:33:48Z</time>
      </trkpt>
      <trkpt lat="48.84989" lon="2.32744">
        <ele>46.79999923706</ele>
        <time>2015-11-16T20:33:56Z</time>
      </trkpt>
      <trkpt lat="48.8497" lon="2.3275">
        <ele>47.599998474121</ele>
        <time>2015-11-16T20:34:02Z</time>
      </trkpt>
      <trkpt lat="48.8495" lon="2.32755">
        <ele>48.79999923706</ele>
        <time>2015-11-16T20:34:08Z</time>
      </trkpt>
      <trkpt lat="48.8493" lon="2.32762">
        <ele>49.400001525879</ele>
        <time>2015-11-16T20:34:13Z</time>
      </trkpt>
      <trkpt lat="48.8491" lon="2.32771">
        <ele>49.599998474121</ele>
        <time>2015-11-16T20:34:18Z</time>
      </trkpt>
      <trkpt lat="48.84892" lon="2.3278">
        <ele>49.79999923706</ele>
        <time>2015-11-16T20:34:23Z</time>
      </trkpt>
      <trkpt lat="48.8487" lon="2.32782">
        <ele>50.400001525879</ele>
        <time>2015-11-16T20:34:27Z</time>
      </trkpt>
      <trkpt lat="48.84841" lon="2.32781">
        <ele>51.400001525879</ele>
        <time>2015-11-16T20:34:30Z</time>
      </trkpt>
      <trkpt lat="48.84819" lon="2.32781">
        <ele>52.79999923706</ele>
        <time>2015-11-16T20:34:33Z</time>
      </trkpt>
      <trkpt lat="48.84801" lon="2.32783">
        <ele>53.599998474121</ele>
        <time>2015-11-16T20:34:40Z</time>
      </trkpt>
      <trkpt lat="48.84783" lon="2.32783">
        <ele>53.599998474121</ele>
        <time>2015-11-16T20:34:46Z</time>
      </trkpt>
      <trkpt lat="48.84765" lon="2.3279">
        <ele>53.400001525879</ele>
        <time>2015-11-16T20:34:52Z</time>
      </trkpt>
      <trkpt lat="48.84749" lon="2.32794">
        <ele>52.79999923706</ele>
        <time>2015-11-16T20:34:59Z</time>
      </trkpt>
      <trkpt lat="48.84734" lon="2.32795">
        <ele>52.599998474121</ele>
        <time>2015-11-16T20:35:05Z</time>
      </trkpt>
      <trkpt lat="48.84717" lon="2.32807">
        <ele>52</ele>
        <time>2015-11-16T20:35:12Z</time>
      </trkpt>
      <trkpt lat="48.84699" lon="2.32817">
        <ele>51.400001525879</ele>
        <time>2015-11-16T20:35:20Z</time>
      </trkpt>
      <trkpt lat="48.84689" lon="2.32817">
        <ele>51.20000076294</ele>
        <time>2015-11-16T20:35:24Z</time>
      </trkpt>
      <trkpt lat="48.84679" lon="2.32817">
        <ele>51</ele>
        <time>2015-11-16T20:35:28Z</time>
      </trkpt>
      <trkpt lat="48.84661" lon="2.32827">
        <ele>51</ele>
        <time>2015-11-16T20:35:37Z</time>
      </trkpt>
      <trkpt lat="48.84642" lon="2.32833">
        <ele>51.20000076294</ele>
        <time>2015-11-16T20:35:43Z</time>
      </trkpt>
      <trkpt lat="48.8462" lon="2.32835">
        <ele>51.20000076294</ele>
        <time>2015-11-16T20:35:48Z</time>
      </trkpt>
      <trkpt lat="48.84598" lon="2.32837">
        <ele>51.599998474121</ele>
        <time>2015-11-16T20:35:53Z</time>
      </trkpt>
      <trkpt lat="48.84579" lon="2.32842">
        <ele>52.400001525879</ele>
        <time>2015-11-16T20:35:59Z</time>
      </trkpt>
      <trkpt lat="48.8456" lon="2.32844">
        <ele>53</ele>
        <time>2015-11-16T20:36:03Z</time>
      </trkpt>
      <trkpt lat="48.84542" lon="2.32855">
        <ele>53.79999923706</ele>
        <time>2015-11-16T20:36:11Z</time>
      </trkpt>
      <trkpt lat="48.84539" lon="2.32858">
        <ele>53.599998474121</ele>
        <time>2015-11-16T20:36:13Z</time>
      </trkpt>
      <trkpt lat="48.84521" lon="2.32863">
        <ele>52.599998474121</ele>
        <time>2015-11-16T20:36:22Z</time>
      </trkpt>
      <trkpt lat="48.84502" lon="2.3287">
        <ele>53.599998474121</ele>
        <time>2015-11-16T20:36:28Z</time>
      </trkpt>
      <trkpt lat="48.84483" lon="2.32874">
        <ele>54.400001525879</ele>
        <time>2015-11-16T20:36:33Z</time>
      </trkpt>
      <trkpt lat="48.84466" lon="2.32879">
        <ele>55.599998474121</ele>
        <time>2015-11-16T20:36:38Z</time>
      </trkpt>
      <trkpt lat="48.84447" lon="2.32888">
        <ele>57</ele>
        <time>2015-11-16T20:36:44Z</time>
      </trkpt>
      <trkpt lat="48.8443" lon="2.32897">
        <ele>58.20000076294</ele>
        <time>2015-11-16T20:36:51Z</time>
      </trkpt>
      <trkpt lat="48.84412" lon="2.32904">
        <ele>58.599998474121</ele>
        <time>2015-11-16T20:37:00Z</time>
      </trkpt>
      <trkpt lat="48.84393" lon="2.32907">
        <ele>59</ele>
        <time>2015-11-16T20:37:06Z</time>
      </trkpt>
      <trkpt lat="48.84381" lon="2.32915">
        <ele>59.400001525879</ele>
        <time>2015-11-16T20:37:15Z</time>
      </trkpt>
      <trkpt lat="48.84372" lon="2.32921">
        <ele>59.599998474121</ele>
        <time>2015-11-16T20:37:21Z</time>
      </trkpt>
      <trkpt lat="48.84365" lon="2.32927">
        <ele>59.79999923706</ele>
        <time>2015-11-16T20:37:24Z</time>
      </trkpt>
      <trkpt lat="48.84339" lon="2.32927">
        <ele>59.79999923706</ele>
        <time>2015-11-16T20:37:30Z</time>
      </trkpt>
      <trkpt lat="48.84319" lon="2.3293">
        <ele>59.79999923706</ele>
        <time>2015-11-16T20:37:34Z</time>
      </trkpt>
      <trkpt lat="48.84317" lon="2.32931">
        <ele>59.79999923706</ele>
        <time>2015-11-16T20:37:35Z</time>
      </trkpt>
      <trkpt lat="48.84299" lon="2.32936">
        <ele>59.79999923706</ele>
        <time>2015-11-16T20:37:43Z</time>
      </trkpt>
      <trkpt lat="48.84278" lon="2.32943">
        <ele>60</ele>
        <time>2015-11-16T20:37:51Z</time>
      </trkpt>
      <trkpt lat="48.84274" lon="2.32942">
        <ele>60</ele>
        <time>2015-11-16T20:37:52Z</time>
      </trkpt>
      <trkpt lat="48.84255" lon="2.32941">
        <ele>60.20000076294</ele>
        <time>2015-11-16T20:37:56Z</time>
      </trkpt>
      <trkpt lat="48.84235" lon="2.32936">
        <ele>60.400001525879</ele>
        <time>2015-11-16T20:37:59Z</time>
      </trkpt>
      <trkpt lat="48.84228" lon="2.32931">
        <ele>60.599998474121</ele>
        <time>2015-11-16T20:38:03Z</time>
      </trkpt>
      <trkpt lat="48.8421" lon="2.32926">
        <ele>60.79999923706</ele>
        <time>2015-11-16T20:38:29Z</time>
      </trkpt>
      <trkpt lat="48.84197" lon="2.32941">
        <ele>61</ele>
        <time>2015-11-16T20:38:39Z</time>
      </trkpt>
      <trkpt lat="48.84193" lon="2.32953">
        <ele>61</ele>
        <time>2015-11-16T20:38:46Z</time>
      </trkpt>
      <trkpt lat="48.84198" lon="2.32955">
        <ele>60.79999923706</ele>
        <time>2015-11-16T20:38:53Z</time>
      </trkpt>
      <trkpt lat="48.84185" lon="2.32967">
        <ele>61</ele>
        <time>2015-11-16T20:38:59Z</time>
      </trkpt>
      <trkpt lat="48.84166" lon="2.32977">
        <ele>61</ele>
        <time>2015-11-16T20:39:04Z</time>
      </trkpt>
      <trkpt lat="48.84152" lon="2.32984">
        <ele>61.79999923706</ele>
        <time>2015-11-16T20:39:09Z</time>
      </trkpt>
      <trkpt lat="48.84134" lon="2.32991">
        <ele>62.79999923706</ele>
        <time>2015-11-16T20:39:15Z</time>
      </trkpt>
      <trkpt lat="48.84115" lon="2.32991">
        <ele>63.400001525879</ele>
        <time>2015-11-16T20:39:22Z</time>
      </trkpt>
      <trkpt lat="48.84093" lon="2.3299">
        <ele>63.400001525879</ele>
        <time>2015-11-16T20:39:29Z</time>
      </trkpt>
      <trkpt lat="48.84072" lon="2.32992">
        <ele>62.79999923706</ele>
        <time>2015-11-16T20:39:35Z</time>
      </trkpt>
      <trkpt lat="48.84053" lon="2.32991">
        <ele>62</ele>
        <time>2015-11-16T20:39:42Z</time>
      </trkpt>
      <trkpt lat="48.84035" lon="2.32996">
        <ele>61.400001525879</ele>
        <time>2015-11-16T20:39:51Z</time>
      </trkpt>
      <trkpt lat="48.84017" lon="2.33003">
        <ele>61</ele>
        <time>2015-11-16T20:39:56Z</time>
      </trkpt>
      <trkpt lat="48.83996" lon="2.3301">
        <ele>60.599998474121</ele>
        <time>2015-11-16T20:40:02Z</time>
      </trkpt>
      <trkpt lat="48.83979" lon="2.33018">
        <ele>60.400001525879</ele>
        <time>2015-11-16T20:40:07Z</time>
      </trkpt>
      <trkpt lat="48.8396" lon="2.33033">
        <ele>61</ele>
        <time>2015-11-16T20:40:12Z</time>
      </trkpt>
      <trkpt lat="48.83942" lon="2.3305">
        <ele>62.400001525879</ele>
        <time>2015-11-16T20:40:18Z</time>
      </trkpt>
      <trkpt lat="48.83922" lon="2.33061">
        <ele>63.20000076294</ele>
        <time>2015-11-16T20:40:23Z</time>
      </trkpt>
      <trkpt lat="48.83911" lon="2.3307">
        <ele>64</ele>
        <time>2015-11-16T20:40:27Z</time>
      </trkpt>
      <trkpt lat="48.83898" lon="2.3308">
        <ele>65</ele>
        <time>2015-11-16T20:40:32Z</time>
      </trkpt>
      <trkpt lat="48.83889" lon="2.33088">
        <ele>65.199996948242</ele>
        <time>2015-11-16T20:40:37Z</time>
      </trkpt>
      <trkpt lat="48.83871" lon="2.33094">
        <ele>65.400001525879</ele>
        <time>2015-11-16T20:40:45Z</time>
      </trkpt>
      <trkpt lat="48.83852" lon="2.33101">
        <ele>65.599998474121</ele>
        <time>2015-11-16T20:40:53Z</time>
      </trkpt>
      <trkpt lat="48.83834" lon="2.33107">
        <ele>64.800003051758</ele>
        <time>2015-11-16T20:41:00Z</time>
      </trkpt>
      <trkpt lat="48.83814" lon="2.33116">
        <ele>64</ele>
        <time>2015-11-16T20:41:07Z</time>
      </trkpt>
      <trkpt lat="48.83795" lon="2.33122">
        <ele>64</ele>
        <time>2015-11-16T20:41:13Z</time>
      </trkpt>
      <trkpt lat="48.83776" lon="2.33124">
        <ele>64</ele>
        <time>2015-11-16T20:41:20Z</time>
      </trkpt>
      <trkpt lat="48.83756" lon="2.33133">
        <ele>64.800003051758</ele>
        <time>2015-11-16T20:41:28Z</time>
      </trkpt>
      <trkpt lat="48.83746" lon="2.3314">
        <ele>65.199996948242</ele>
        <time>2015-11-16T20:41:32Z</time>
      </trkpt>
      <trkpt lat="48.83728" lon="2.33152">
        <ele>65.199996948242</ele>
        <time>2015-11-16T20:41:39Z</time>
      </trkpt>
      <trkpt lat="48.8371" lon="2.33159">
        <ele>65</ele>
        <time>2015-11-16T20:41:45Z</time>
      </trkpt>
      <trkpt lat="48.8369" lon="2.33167">
        <ele>65</ele>
        <time>2015-11-16T20:41:52Z</time>
      </trkpt>
      <trkpt lat="48.83669" lon="2.33168">
        <ele>66</ele>
        <time>2015-11-16T20:41:59Z</time>
      </trkpt>
      <trkpt lat="48.83651" lon="2.33173">
        <ele>67</ele>
        <time>2015-11-16T20:42:05Z</time>
      </trkpt>
      <trkpt lat="48.83632" lon="2.33181">
        <ele>68</ele>
        <time>2015-11-16T20:42:12Z</time>
      </trkpt>
      <trkpt lat="48.83612" lon="2.33182">
        <ele>68.800003051758</ele>
        <time>2015-11-16T20:42:20Z</time>
      </trkpt>
      <trkpt lat="48.83592" lon="2.33185">
        <ele>69.199996948242</ele>
        <time>2015-11-16T20:42:27Z</time>
      </trkpt>
      <trkpt lat="48.8357" lon="2.33186">
        <ele>69.400001525879</ele>
        <time>2015-11-16T20:42:34Z</time>
      </trkpt>
      <trkpt lat="48.83551" lon="2.33184">
        <ele>69.599998474121</ele>
        <time>2015-11-16T20:42:40Z</time>
      </trkpt>
      <trkpt lat="48.8353" lon="2.33189">
        <ele>71</ele>
        <time>2015-11-16T20:42:46Z</time>
      </trkpt>
      <trkpt lat="48.83512" lon="2.33191">
        <ele>71</ele>
        <time>2015-11-16T20:42:52Z</time>
      </trkpt>
      <trkpt lat="48.8351" lon="2.33191">
        <ele>71</ele>
        <time>2015-11-16T20:42:53Z</time>
      </trkpt>
      <trkpt lat="48.83495" lon="2.33191">
        <ele>70</ele>
        <time>2015-11-16T20:43:01Z</time>
      </trkpt>
      <trkpt lat="48.83477" lon="2.33192">
        <ele>69</ele>
        <time>2015-11-16T20:43:12Z</time>
      </trkpt>
      <trkpt lat="48.83468" lon="2.33203">
        <ele>68.599998474121</ele>
        <time>2015-11-16T20:43:35Z</time>
      </trkpt>
      <trkpt lat="48.83468" lon="2.33214">
        <ele>68.800003051758</ele>
        <time>2015-11-16T20:44:44Z</time>
      </trkpt>
      <trkpt lat="48.83469" lon="2.33236">
        <ele>69</ele>
        <time>2015-11-16T20:45:25Z</time>
      </trkpt>
      <trkpt lat="48.83472" lon="2.33245">
        <ele>69.400001525879</ele>
        <time>2015-11-16T20:45:28Z</time>
      </trkpt>
      <trkpt lat="48.8347" lon="2.33271">
        <ele>69.199996948242</ele>
        <time>2015-11-16T20:45:45Z</time>
      </trkpt>
      <trkpt lat="48.83456" lon="2.33287">
        <ele>68.400001525879</ele>
        <time>2015-11-16T20:45:53Z</time>
      </trkpt>
      <trkpt lat="48.83439" lon="2.333">
        <ele>67.599998474121</ele>
        <time>2015-11-16T20:46:01Z</time>
      </trkpt>
      <trkpt lat="48.83426" lon="2.33289">
        <ele>67</ele>
        <time>2015-11-16T20:46:17Z</time>
      </trkpt>
      <trkpt lat="48.83419" lon="2.33276">
        <ele>66.599998474121</ele>
        <time>2015-11-16T20:46:24Z</time>
      </trkpt>
      <trkpt lat="48.83416" lon="2.33273">
        <ele>66.400001525879</ele>
        <time>2015-11-16T20:46:27Z</time>
      </trkpt>
      <trkpt lat="48.83407" lon="2.33284">
        <ele>66.199996948242</ele>
        <time>2015-11-16T20:46:34Z</time>
      </trkpt>
      <trkpt lat="48.83393" lon="2.33305">
        <ele>65.199996948242</ele>
        <time>2015-11-16T20:46:41Z</time>
      </trkpt>
      <trkpt lat="48.83375" lon="2.33308">
        <ele>64</ele>
        <time>2015-11-16T20:46:46Z</time>
      </trkpt>
      <trkpt lat="48.83358" lon="2.33292">
        <ele>63</ele>
        <time>2015-11-16T20:46:53Z</time>
      </trkpt>
      <trkpt lat="48.8335" lon="2.33278">
        <ele>63.400001525879</ele>
        <time>2015-11-16T20:46:59Z</time>
      </trkpt>
      <trkpt lat="48.8334" lon="2.33262">
        <ele>64</ele>
        <time>2015-11-16T20:47:16Z</time>
      </trkpt>
      <trkpt lat="48.83335" lon="2.33256">
        <ele>64.199996948242</ele>
        <time>2015-11-16T20:47:22Z</time>
      </trkpt>
      <trkpt lat="48.8333" lon="2.33259">
        <ele>64.400001525879</ele>
        <time>2015-11-16T20:47:27Z</time>
      </trkpt>
    </trkseg>
  </trk>
</gpx>